<?xml version="1.0" encoding="UTF-8" standalone="no" ?>
<gpx xmlns="http://www.topografix.com/GPX/1/1" xmlns:xsi="http://www.w3.org/2001/XMLSchema-instance" xsi:schemaLocation="http://www.topografix.com/GPX/1/1 http://www.topografix.com/GPX/1/1/gpx.xsd" version="1.1" creator="VisuGPX - https://www.visugpx.com">
  <metadata>
    <name>refuge de l'Oule a aulon par pic portarras, Néouvielle, par NATAKA</name>
  </metadata>
  <trk>
    <name><![CDATA[13907608-refuge de l'oule a aulon par pic portarras]]></name>
    <trkseg>
      <trkpt lat="42.82489" lon="0.20639">
        <ele>1807</ele>
        <time>2021-11-05T11:29:09Z</time>
      </trkpt>
      <trkpt lat="42.82451" lon="0.20648">
        <ele>1802</ele>
        <time>2021-11-05T11:29:40Z</time>
      </trkpt>
      <trkpt lat="42.82446" lon="0.20649">
        <ele>1802</ele>
        <time>2021-11-05T11:29:44Z</time>
      </trkpt>
      <trkpt lat="42.82432" lon="0.20649">
        <ele>1799</ele>
        <time>2021-11-05T11:29:55Z</time>
      </trkpt>
      <trkpt lat="42.82417" lon="0.20659">
        <ele>1798</ele>
        <time>2021-11-05T11:30:09Z</time>
      </trkpt>
      <trkpt lat="42.82413" lon="0.20665">
        <ele>1799</ele>
        <time>2021-11-05T11:30:13Z</time>
      </trkpt>
      <trkpt lat="42.824" lon="0.20702">
        <ele>1806</ele>
        <time>2021-11-05T11:30:37Z</time>
      </trkpt>
      <trkpt lat="42.82378" lon="0.20734">
        <ele>1810</ele>
        <time>2021-11-05T11:31:03Z</time>
      </trkpt>
      <trkpt lat="42.82386" lon="0.20735">
        <ele>1811</ele>
        <time>2021-11-05T11:31:10Z</time>
      </trkpt>
      <trkpt lat="42.8245" lon="0.20721">
        <ele>1821</ele>
        <time>2021-11-05T11:32:01Z</time>
      </trkpt>
      <trkpt lat="42.8246" lon="0.20722">
        <ele>1823</ele>
        <time>2021-11-05T11:32:09Z</time>
      </trkpt>
      <trkpt lat="42.82465" lon="0.20721">
        <ele>1824</ele>
        <time>2021-11-05T11:32:14Z</time>
      </trkpt>
      <trkpt lat="42.82472" lon="0.2072">
        <ele>1825</ele>
        <time>2021-11-05T11:32:19Z</time>
      </trkpt>
      <trkpt lat="42.82474" lon="0.20749">
        <ele>1834</ele>
        <time>2021-11-05T11:32:36Z</time>
      </trkpt>
      <trkpt lat="42.82475" lon="0.20752">
        <ele>1835</ele>
        <time>2021-11-05T11:32:38Z</time>
      </trkpt>
      <trkpt lat="42.82505" lon="0.20741">
        <ele>1840</ele>
        <time>2021-11-05T11:33:03Z</time>
      </trkpt>
      <trkpt lat="42.82541" lon="0.20707">
        <ele>1842</ele>
        <time>2021-11-05T11:33:38Z</time>
      </trkpt>
      <trkpt lat="42.82584" lon="0.2066">
        <ele>1835</ele>
        <time>2021-11-05T11:34:22Z</time>
      </trkpt>
      <trkpt lat="42.82597" lon="0.20648">
        <ele>1836</ele>
        <time>2021-11-05T11:34:35Z</time>
      </trkpt>
      <trkpt lat="42.82666" lon="0.20593">
        <ele>1835</ele>
        <time>2021-11-05T11:35:39Z</time>
      </trkpt>
      <trkpt lat="42.82678" lon="0.20585">
        <ele>1833</ele>
        <time>2021-11-05T11:35:50Z</time>
      </trkpt>
      <trkpt lat="42.82697" lon="0.20576">
        <ele>1835</ele>
        <time>2021-11-05T11:36:06Z</time>
      </trkpt>
      <trkpt lat="42.82724" lon="0.20558">
        <ele>1835</ele>
        <time>2021-11-05T11:36:30Z</time>
      </trkpt>
      <trkpt lat="42.8274" lon="0.20552">
        <ele>1837</ele>
        <time>2021-11-05T11:36:43Z</time>
      </trkpt>
      <trkpt lat="42.82762" lon="0.20548">
        <ele>1836</ele>
        <time>2021-11-05T11:37:01Z</time>
      </trkpt>
      <trkpt lat="42.82777" lon="0.20551">
        <ele>1837</ele>
        <time>2021-11-05T11:37:13Z</time>
      </trkpt>
      <trkpt lat="42.82824" lon="0.20573">
        <ele>1843</ele>
        <time>2021-11-05T11:37:53Z</time>
      </trkpt>
      <trkpt lat="42.82841" lon="0.20588">
        <ele>1847</ele>
        <time>2021-11-05T11:38:09Z</time>
      </trkpt>
      <trkpt lat="42.82848" lon="0.20597">
        <ele>1850</ele>
        <time>2021-11-05T11:38:17Z</time>
      </trkpt>
      <trkpt lat="42.82851" lon="0.20605">
        <ele>1853</ele>
        <time>2021-11-05T11:38:22Z</time>
      </trkpt>
      <trkpt lat="42.82849" lon="0.20625">
        <ele>1859</ele>
        <time>2021-11-05T11:38:34Z</time>
      </trkpt>
      <trkpt lat="42.82837" lon="0.20646">
        <ele>1866</ele>
        <time>2021-11-05T11:38:49Z</time>
      </trkpt>
      <trkpt lat="42.82828" lon="0.20649">
        <ele>1867</ele>
        <time>2021-11-05T11:38:57Z</time>
      </trkpt>
      <trkpt lat="42.82814" lon="0.20638">
        <ele>1866</ele>
        <time>2021-11-05T11:39:10Z</time>
      </trkpt>
      <trkpt lat="42.82806" lon="0.20634">
        <ele>1866</ele>
        <time>2021-11-05T11:39:17Z</time>
      </trkpt>
      <trkpt lat="42.82797" lon="0.20637">
        <ele>1868</ele>
        <time>2021-11-05T11:39:24Z</time>
      </trkpt>
      <trkpt lat="42.82788" lon="0.20643">
        <ele>1872</ele>
        <time>2021-11-05T11:39:32Z</time>
      </trkpt>
      <trkpt lat="42.82786" lon="0.20649">
        <ele>1875</ele>
        <time>2021-11-05T11:39:36Z</time>
      </trkpt>
      <trkpt lat="42.8279" lon="0.20655">
        <ele>1876</ele>
        <time>2021-11-05T11:39:41Z</time>
      </trkpt>
      <trkpt lat="42.82792" lon="0.20662">
        <ele>1878</ele>
        <time>2021-11-05T11:39:45Z</time>
      </trkpt>
      <trkpt lat="42.82792" lon="0.20674">
        <ele>1882</ele>
        <time>2021-11-05T11:39:52Z</time>
      </trkpt>
      <trkpt lat="42.82779" lon="0.20692">
        <ele>1889</ele>
        <time>2021-11-05T11:40:07Z</time>
      </trkpt>
      <trkpt lat="42.82777" lon="0.20709">
        <ele>1894</ele>
        <time>2021-11-05T11:40:17Z</time>
      </trkpt>
      <trkpt lat="42.82778" lon="0.20717">
        <ele>1897</ele>
        <time>2021-11-05T11:40:22Z</time>
      </trkpt>
      <trkpt lat="42.82781" lon="0.20724">
        <ele>1898</ele>
        <time>2021-11-05T11:40:27Z</time>
      </trkpt>
      <trkpt lat="42.82803" lon="0.20745">
        <ele>1903</ele>
        <time>2021-11-05T11:40:48Z</time>
      </trkpt>
      <trkpt lat="42.82816" lon="0.2076">
        <ele>1907</ele>
        <time>2021-11-05T11:41:02Z</time>
      </trkpt>
      <trkpt lat="42.82828" lon="0.20784">
        <ele>1916</ele>
        <time>2021-11-05T11:41:19Z</time>
      </trkpt>
      <trkpt lat="42.82832" lon="0.20787">
        <ele>1917</ele>
        <time>2021-11-05T11:41:22Z</time>
      </trkpt>
      <trkpt lat="42.82858" lon="0.20794">
        <ele>1922</ele>
        <time>2021-11-05T11:41:44Z</time>
      </trkpt>
      <trkpt lat="42.82873" lon="0.20792">
        <ele>1923</ele>
        <time>2021-11-05T11:41:56Z</time>
      </trkpt>
      <trkpt lat="42.82914" lon="0.20807">
        <ele>1934</ele>
        <time>2021-11-05T11:42:30Z</time>
      </trkpt>
      <trkpt lat="42.82924" lon="0.20808">
        <ele>1937</ele>
        <time>2021-11-05T11:42:38Z</time>
      </trkpt>
      <trkpt lat="42.82928" lon="0.20811">
        <ele>1939</ele>
        <time>2021-11-05T11:42:41Z</time>
      </trkpt>
      <trkpt lat="42.82928" lon="0.20816">
        <ele>1941</ele>
        <time>2021-11-05T11:42:44Z</time>
      </trkpt>
      <trkpt lat="42.82926" lon="0.2082">
        <ele>1943</ele>
        <time>2021-11-05T11:42:47Z</time>
      </trkpt>
      <trkpt lat="42.82912" lon="0.2083">
        <ele>1944</ele>
        <time>2021-11-05T11:43:00Z</time>
      </trkpt>
      <trkpt lat="42.82888" lon="0.20855">
        <ele>1950</ele>
        <time>2021-11-05T11:43:24Z</time>
      </trkpt>
      <trkpt lat="42.82879" lon="0.20873">
        <ele>1955</ele>
        <time>2021-11-05T11:43:37Z</time>
      </trkpt>
      <trkpt lat="42.82859" lon="0.20879">
        <ele>1954</ele>
        <time>2021-11-05T11:43:53Z</time>
      </trkpt>
      <trkpt lat="42.82854" lon="0.20887">
        <ele>1956</ele>
        <time>2021-11-05T11:43:59Z</time>
      </trkpt>
      <trkpt lat="42.82851" lon="0.20899">
        <ele>1960</ele>
        <time>2021-11-05T11:44:07Z</time>
      </trkpt>
      <trkpt lat="42.8285" lon="0.20908">
        <ele>1963</ele>
        <time>2021-11-05T11:44:12Z</time>
      </trkpt>
      <trkpt lat="42.82847" lon="0.20911">
        <ele>1964</ele>
        <time>2021-11-05T11:44:15Z</time>
      </trkpt>
      <trkpt lat="42.82842" lon="0.20912">
        <ele>1964</ele>
        <time>2021-11-05T11:44:19Z</time>
      </trkpt>
      <trkpt lat="42.82835" lon="0.20907">
        <ele>1961</ele>
        <time>2021-11-05T11:44:25Z</time>
      </trkpt>
      <trkpt lat="42.82825" lon="0.20908">
        <ele>1961</ele>
        <time>2021-11-05T11:44:33Z</time>
      </trkpt>
      <trkpt lat="42.82803" lon="0.2092">
        <ele>1963</ele>
        <time>2021-11-05T11:44:52Z</time>
      </trkpt>
      <trkpt lat="42.82773" lon="0.20931">
        <ele>1965</ele>
        <time>2021-11-05T11:45:17Z</time>
      </trkpt>
      <trkpt lat="42.82755" lon="0.20941">
        <ele>1966</ele>
        <time>2021-11-05T11:45:33Z</time>
      </trkpt>
      <trkpt lat="42.82717" lon="0.2097">
        <ele>1974</ele>
        <time>2021-11-05T11:46:08Z</time>
      </trkpt>
      <trkpt lat="42.82706" lon="0.20982">
        <ele>1978</ele>
        <time>2021-11-05T11:46:19Z</time>
      </trkpt>
      <trkpt lat="42.82695" lon="0.20999">
        <ele>1983</ele>
        <time>2021-11-05T11:46:32Z</time>
      </trkpt>
      <trkpt lat="42.8269" lon="0.21">
        <ele>1983</ele>
        <time>2021-11-05T11:46:36Z</time>
      </trkpt>
      <trkpt lat="42.82681" lon="0.20998">
        <ele>1983</ele>
        <time>2021-11-05T11:46:44Z</time>
      </trkpt>
      <trkpt lat="42.82676" lon="0.21003">
        <ele>1984</ele>
        <time>2021-11-05T11:46:49Z</time>
      </trkpt>
      <trkpt lat="42.82649" lon="0.21036">
        <ele>1985</ele>
        <time>2021-11-05T11:47:18Z</time>
      </trkpt>
      <trkpt lat="42.82648" lon="0.21051">
        <ele>1987</ele>
        <time>2021-11-05T11:47:27Z</time>
      </trkpt>
      <trkpt lat="42.82653" lon="0.21058">
        <ele>1989</ele>
        <time>2021-11-05T11:47:32Z</time>
      </trkpt>
      <trkpt lat="42.82685" lon="0.21086">
        <ele>1996</ele>
        <time>2021-11-05T11:48:03Z</time>
      </trkpt>
      <trkpt lat="42.82703" lon="0.2111">
        <ele>2000</ele>
        <time>2021-11-05T11:48:23Z</time>
      </trkpt>
      <trkpt lat="42.82742" lon="0.21176">
        <ele>2011</ele>
        <time>2021-11-05T11:49:13Z</time>
      </trkpt>
      <trkpt lat="42.82763" lon="0.2123">
        <ele>2014</ele>
        <time>2021-11-05T11:49:49Z</time>
      </trkpt>
      <trkpt lat="42.82768" lon="0.21251">
        <ele>2015</ele>
        <time>2021-11-05T11:50:02Z</time>
      </trkpt>
      <trkpt lat="42.82778" lon="0.2131">
        <ele>2020</ele>
        <time>2021-11-05T11:50:37Z</time>
      </trkpt>
      <trkpt lat="42.82779" lon="0.21326">
        <ele>2021</ele>
        <time>2021-11-05T11:50:47Z</time>
      </trkpt>
      <trkpt lat="42.82779" lon="0.21346">
        <ele>2022</ele>
        <time>2021-11-05T11:50:58Z</time>
      </trkpt>
      <trkpt lat="42.82775" lon="0.21402">
        <ele>2023</ele>
        <time>2021-11-05T11:51:31Z</time>
      </trkpt>
      <trkpt lat="42.82769" lon="0.21459">
        <ele>2023</ele>
        <time>2021-11-05T11:52:05Z</time>
      </trkpt>
      <trkpt lat="42.82772" lon="0.215">
        <ele>2024</ele>
        <time>2021-11-05T11:52:29Z</time>
      </trkpt>
      <trkpt lat="42.8277" lon="0.21536">
        <ele>2024</ele>
        <time>2021-11-05T11:52:51Z</time>
      </trkpt>
      <trkpt lat="42.82774" lon="0.21572">
        <ele>2026</ele>
        <time>2021-11-05T11:53:12Z</time>
      </trkpt>
      <trkpt lat="42.82774" lon="0.21642">
        <ele>2025</ele>
        <time>2021-11-05T11:53:53Z</time>
      </trkpt>
      <trkpt lat="42.82773" lon="0.21667">
        <ele>2024</ele>
        <time>2021-11-05T11:54:08Z</time>
      </trkpt>
      <trkpt lat="42.82768" lon="0.21701">
        <ele>2025</ele>
        <time>2021-11-05T11:54:28Z</time>
      </trkpt>
      <trkpt lat="42.82771" lon="0.21695">
        <ele>2025</ele>
        <time>2021-11-05T11:54:32Z</time>
      </trkpt>
      <trkpt lat="42.82776" lon="0.21673">
        <ele>2025</ele>
        <time>2021-11-05T11:54:46Z</time>
      </trkpt>
      <trkpt lat="42.82781" lon="0.21638">
        <ele>2027</ele>
        <time>2021-11-05T11:55:07Z</time>
      </trkpt>
      <trkpt lat="42.82782" lon="0.21545">
        <ele>2028</ele>
        <time>2021-11-05T11:56:01Z</time>
      </trkpt>
      <trkpt lat="42.82786" lon="0.21521">
        <ele>2029</ele>
        <time>2021-11-05T11:56:16Z</time>
      </trkpt>
      <trkpt lat="42.82788" lon="0.21499">
        <ele>2029</ele>
        <time>2021-11-05T11:56:29Z</time>
      </trkpt>
      <trkpt lat="42.82786" lon="0.21475">
        <ele>2028</ele>
        <time>2021-11-05T11:56:43Z</time>
      </trkpt>
      <trkpt lat="42.82788" lon="0.21442">
        <ele>2028</ele>
        <time>2021-11-05T11:57:02Z</time>
      </trkpt>
      <trkpt lat="42.8279" lon="0.21438">
        <ele>2028</ele>
        <time>2021-11-05T11:57:05Z</time>
      </trkpt>
      <trkpt lat="42.82795" lon="0.21397">
        <ele>2028</ele>
        <time>2021-11-05T11:57:30Z</time>
      </trkpt>
      <trkpt lat="42.82794" lon="0.21361">
        <ele>2026</ele>
        <time>2021-11-05T11:57:51Z</time>
      </trkpt>
      <trkpt lat="42.82796" lon="0.21307">
        <ele>2023</ele>
        <time>2021-11-05T11:58:23Z</time>
      </trkpt>
      <trkpt lat="42.82799" lon="0.21279">
        <ele>2022</ele>
        <time>2021-11-05T11:58:39Z</time>
      </trkpt>
      <trkpt lat="42.828" lon="0.21273">
        <ele>2022</ele>
        <time>2021-11-05T11:58:43Z</time>
      </trkpt>
      <trkpt lat="42.8281" lon="0.21254">
        <ele>2022</ele>
        <time>2021-11-05T11:58:57Z</time>
      </trkpt>
      <trkpt lat="42.82823" lon="0.21218">
        <ele>2022</ele>
        <time>2021-11-05T11:59:20Z</time>
      </trkpt>
      <trkpt lat="42.82825" lon="0.21209">
        <ele>2021</ele>
        <time>2021-11-05T11:59:26Z</time>
      </trkpt>
      <trkpt lat="42.82827" lon="0.21184">
        <ele>2019</ele>
        <time>2021-11-05T11:59:40Z</time>
      </trkpt>
      <trkpt lat="42.8283" lon="0.21166">
        <ele>2018</ele>
        <time>2021-11-05T11:59:51Z</time>
      </trkpt>
      <trkpt lat="42.82853" lon="0.21139">
        <ele>2021</ele>
        <time>2021-11-05T12:00:16Z</time>
      </trkpt>
      <trkpt lat="42.82858" lon="0.21125">
        <ele>2021</ele>
        <time>2021-11-05T12:00:25Z</time>
      </trkpt>
      <trkpt lat="42.82863" lon="0.21119">
        <ele>2021</ele>
        <time>2021-11-05T12:00:30Z</time>
      </trkpt>
      <trkpt lat="42.82871" lon="0.21103">
        <ele>2022</ele>
        <time>2021-11-05T12:00:41Z</time>
      </trkpt>
      <trkpt lat="42.82884" lon="0.21092">
        <ele>2024</ele>
        <time>2021-11-05T12:00:54Z</time>
      </trkpt>
      <trkpt lat="42.82895" lon="0.21077">
        <ele>2024</ele>
        <time>2021-11-05T12:01:06Z</time>
      </trkpt>
      <trkpt lat="42.82898" lon="0.2107">
        <ele>2023</ele>
        <time>2021-11-05T12:01:11Z</time>
      </trkpt>
      <trkpt lat="42.82901" lon="0.21046">
        <ele>2016</ele>
        <time>2021-11-05T12:01:25Z</time>
      </trkpt>
      <trkpt lat="42.82906" lon="0.21032">
        <ele>2012</ele>
        <time>2021-11-05T12:01:34Z</time>
      </trkpt>
      <trkpt lat="42.82955" lon="0.20968">
        <ele>2008</ele>
        <time>2021-11-05T12:02:29Z</time>
      </trkpt>
      <trkpt lat="42.82993" lon="0.20936">
        <ele>2010</ele>
        <time>2021-11-05T12:03:04Z</time>
      </trkpt>
      <trkpt lat="42.82996" lon="0.20929">
        <ele>2008</ele>
        <time>2021-11-05T12:03:09Z</time>
      </trkpt>
      <trkpt lat="42.83018" lon="0.20906">
        <ele>2008</ele>
        <time>2021-11-05T12:03:31Z</time>
      </trkpt>
      <trkpt lat="42.83033" lon="0.20893">
        <ele>2008</ele>
        <time>2021-11-05T12:03:46Z</time>
      </trkpt>
      <trkpt lat="42.83068" lon="0.20868">
        <ele>2009</ele>
        <time>2021-11-05T12:04:17Z</time>
      </trkpt>
      <trkpt lat="42.83074" lon="0.20861">
        <ele>2008</ele>
        <time>2021-11-05T12:04:24Z</time>
      </trkpt>
      <trkpt lat="42.83079" lon="0.20852">
        <ele>2006</ele>
        <time>2021-11-05T12:04:30Z</time>
      </trkpt>
      <trkpt lat="42.83085" lon="0.20851">
        <ele>2007</ele>
        <time>2021-11-05T12:04:35Z</time>
      </trkpt>
      <trkpt lat="42.83091" lon="0.20846">
        <ele>2007</ele>
        <time>2021-11-05T12:04:41Z</time>
      </trkpt>
      <trkpt lat="42.83113" lon="0.20834">
        <ele>2008</ele>
        <time>2021-11-05T12:05:00Z</time>
      </trkpt>
      <trkpt lat="42.83151" lon="0.20799">
        <ele>2005</ele>
        <time>2021-11-05T12:05:36Z</time>
      </trkpt>
      <trkpt lat="42.83157" lon="0.20798">
        <ele>2007</ele>
        <time>2021-11-05T12:05:41Z</time>
      </trkpt>
      <trkpt lat="42.83166" lon="0.20781">
        <ele>2003</ele>
        <time>2021-11-05T12:05:54Z</time>
      </trkpt>
      <trkpt lat="42.83179" lon="0.2077">
        <ele>2003</ele>
        <time>2021-11-05T12:06:06Z</time>
      </trkpt>
      <trkpt lat="42.83182" lon="0.20772">
        <ele>2004</ele>
        <time>2021-11-05T12:06:08Z</time>
      </trkpt>
      <trkpt lat="42.83185" lon="0.2077">
        <ele>2005</ele>
        <time>2021-11-05T12:06:11Z</time>
      </trkpt>
      <trkpt lat="42.8319" lon="0.2076">
        <ele>2002</ele>
        <time>2021-11-05T12:06:18Z</time>
      </trkpt>
      <trkpt lat="42.83214" lon="0.20743">
        <ele>2000</ele>
        <time>2021-11-05T12:06:40Z</time>
      </trkpt>
      <trkpt lat="42.83232" lon="0.20733">
        <ele>1999</ele>
        <time>2021-11-05T12:06:55Z</time>
      </trkpt>
      <trkpt lat="42.83261" lon="0.20727">
        <ele>2000</ele>
        <time>2021-11-05T12:07:19Z</time>
      </trkpt>
      <trkpt lat="42.83273" lon="0.20722">
        <ele>1998</ele>
        <time>2021-11-05T12:07:29Z</time>
      </trkpt>
      <trkpt lat="42.83289" lon="0.20711">
        <ele>1992</ele>
        <time>2021-11-05T12:07:43Z</time>
      </trkpt>
      <trkpt lat="42.83299" lon="0.20708">
        <ele>1991</ele>
        <time>2021-11-05T12:07:52Z</time>
      </trkpt>
      <trkpt lat="42.83324" lon="0.20707">
        <ele>1992</ele>
        <time>2021-11-05T12:08:12Z</time>
      </trkpt>
      <trkpt lat="42.83327" lon="0.20713">
        <ele>1995</ele>
        <time>2021-11-05T12:08:16Z</time>
      </trkpt>
      <trkpt lat="42.83333" lon="0.20716">
        <ele>1996</ele>
        <time>2021-11-05T12:08:21Z</time>
      </trkpt>
      <trkpt lat="42.83356" lon="0.20698">
        <ele>1991</ele>
        <time>2021-11-05T12:08:42Z</time>
      </trkpt>
      <trkpt lat="42.8338" lon="0.20692">
        <ele>1992</ele>
        <time>2021-11-05T12:09:02Z</time>
      </trkpt>
      <trkpt lat="42.83386" lon="0.20683">
        <ele>1989</ele>
        <time>2021-11-05T12:09:09Z</time>
      </trkpt>
      <trkpt lat="42.83405" lon="0.20667">
        <ele>1984</ele>
        <time>2021-11-05T12:09:27Z</time>
      </trkpt>
      <trkpt lat="42.83422" lon="0.20656">
        <ele>1983</ele>
        <time>2021-11-05T12:09:42Z</time>
      </trkpt>
      <trkpt lat="42.83426" lon="0.2065">
        <ele>1981</ele>
        <time>2021-11-05T12:09:47Z</time>
      </trkpt>
      <trkpt lat="42.83431" lon="0.20648">
        <ele>1982</ele>
        <time>2021-11-05T12:09:51Z</time>
      </trkpt>
      <trkpt lat="42.83446" lon="0.2063">
        <ele>1978</ele>
        <time>2021-11-05T12:10:07Z</time>
      </trkpt>
      <trkpt lat="42.8346" lon="0.20621">
        <ele>1978</ele>
        <time>2021-11-05T12:10:19Z</time>
      </trkpt>
      <trkpt lat="42.83473" lon="0.20609">
        <ele>1977</ele>
        <time>2021-11-05T12:10:32Z</time>
      </trkpt>
      <trkpt lat="42.83486" lon="0.20593">
        <ele>1974</ele>
        <time>2021-11-05T12:10:46Z</time>
      </trkpt>
      <trkpt lat="42.83491" lon="0.20575">
        <ele>1967</ele>
        <time>2021-11-05T12:10:57Z</time>
      </trkpt>
      <trkpt lat="42.83496" lon="0.20565">
        <ele>1963</ele>
        <time>2021-11-05T12:11:04Z</time>
      </trkpt>
      <trkpt lat="42.83504" lon="0.20562">
        <ele>1964</ele>
        <time>2021-11-05T12:11:11Z</time>
      </trkpt>
      <trkpt lat="42.83511" lon="0.20563">
        <ele>1966</ele>
        <time>2021-11-05T12:11:16Z</time>
      </trkpt>
      <trkpt lat="42.8352" lon="0.20567">
        <ele>1970</ele>
        <time>2021-11-05T12:11:24Z</time>
      </trkpt>
      <trkpt lat="42.83541" lon="0.20567">
        <ele>1975</ele>
        <time>2021-11-05T12:11:41Z</time>
      </trkpt>
      <trkpt lat="42.83557" lon="0.20571">
        <ele>1980</ele>
        <time>2021-11-05T12:11:54Z</time>
      </trkpt>
      <trkpt lat="42.83561" lon="0.20571">
        <ele>1981</ele>
        <time>2021-11-05T12:11:57Z</time>
      </trkpt>
      <trkpt lat="42.83564" lon="0.20566">
        <ele>1980</ele>
        <time>2021-11-05T12:12:01Z</time>
      </trkpt>
      <trkpt lat="42.83573" lon="0.2054">
        <ele>1973</ele>
        <time>2021-11-05T12:12:18Z</time>
      </trkpt>
      <trkpt lat="42.83579" lon="0.2051">
        <ele>1966</ele>
        <time>2021-11-05T12:12:36Z</time>
      </trkpt>
      <trkpt lat="42.8358" lon="0.20495">
        <ele>1962</ele>
        <time>2021-11-05T12:12:45Z</time>
      </trkpt>
      <trkpt lat="42.83588" lon="0.20477">
        <ele>1959</ele>
        <time>2021-11-05T12:12:57Z</time>
      </trkpt>
      <trkpt lat="42.83594" lon="0.20473">
        <ele>1959</ele>
        <time>2021-11-05T12:13:03Z</time>
      </trkpt>
      <trkpt lat="42.83609" lon="0.20456">
        <ele>1957</ele>
        <time>2021-11-05T12:13:18Z</time>
      </trkpt>
      <trkpt lat="42.83628" lon="0.2044">
        <ele>1957</ele>
        <time>2021-11-05T12:13:36Z</time>
      </trkpt>
      <trkpt lat="42.8364" lon="0.20423">
        <ele>1955</ele>
        <time>2021-11-05T12:13:50Z</time>
      </trkpt>
      <trkpt lat="42.83648" lon="0.20418">
        <ele>1955</ele>
        <time>2021-11-05T12:13:57Z</time>
      </trkpt>
      <trkpt lat="42.83653" lon="0.20411">
        <ele>1954</ele>
        <time>2021-11-05T12:14:03Z</time>
      </trkpt>
      <trkpt lat="42.83661" lon="0.20406">
        <ele>1955</ele>
        <time>2021-11-05T12:14:10Z</time>
      </trkpt>
      <trkpt lat="42.8366" lon="0.20424">
        <ele>1961</ele>
        <time>2021-11-05T12:14:20Z</time>
      </trkpt>
      <trkpt lat="42.83674" lon="0.20424">
        <ele>1964</ele>
        <time>2021-11-05T12:14:31Z</time>
      </trkpt>
      <trkpt lat="42.83703" lon="0.20415">
        <ele>1970</ele>
        <time>2021-11-05T12:14:55Z</time>
      </trkpt>
      <trkpt lat="42.83711" lon="0.20416">
        <ele>1972</ele>
        <time>2021-11-05T12:15:02Z</time>
      </trkpt>
      <trkpt lat="42.83725" lon="0.2041">
        <ele>1974</ele>
        <time>2021-11-05T12:15:13Z</time>
      </trkpt>
      <trkpt lat="42.83753" lon="0.20406">
        <ele>1980</ele>
        <time>2021-11-05T12:15:36Z</time>
      </trkpt>
      <trkpt lat="42.83765" lon="0.20411">
        <ele>1985</ele>
        <time>2021-11-05T12:15:46Z</time>
      </trkpt>
      <trkpt lat="42.83774" lon="0.20419">
        <ele>1990</ele>
        <time>2021-11-05T12:15:55Z</time>
      </trkpt>
      <trkpt lat="42.83809" lon="0.20426">
        <ele>2001</ele>
        <time>2021-11-05T12:16:23Z</time>
      </trkpt>
      <trkpt lat="42.83819" lon="0.20427">
        <ele>2003</ele>
        <time>2021-11-05T12:16:31Z</time>
      </trkpt>
      <trkpt lat="42.83842" lon="0.20418">
        <ele>2004</ele>
        <time>2021-11-05T12:16:50Z</time>
      </trkpt>
      <trkpt lat="42.83853" lon="0.20417">
        <ele>2006</ele>
        <time>2021-11-05T12:16:59Z</time>
      </trkpt>
      <trkpt lat="42.83896" lon="0.20418">
        <ele>2015</ele>
        <time>2021-11-05T12:17:33Z</time>
      </trkpt>
      <trkpt lat="42.83907" lon="0.20412">
        <ele>2014</ele>
        <time>2021-11-05T12:17:43Z</time>
      </trkpt>
      <trkpt lat="42.83931" lon="0.20417">
        <ele>2020</ele>
        <time>2021-11-05T12:18:02Z</time>
      </trkpt>
      <trkpt lat="42.83936" lon="0.20422">
        <ele>2023</ele>
        <time>2021-11-05T12:18:07Z</time>
      </trkpt>
      <trkpt lat="42.83936" lon="0.20429">
        <ele>2026</ele>
        <time>2021-11-05T12:18:11Z</time>
      </trkpt>
      <trkpt lat="42.83963" lon="0.20434">
        <ele>2031</ele>
        <time>2021-11-05T12:18:33Z</time>
      </trkpt>
      <trkpt lat="42.83976" lon="0.2044">
        <ele>2034</ele>
        <time>2021-11-05T12:18:44Z</time>
      </trkpt>
      <trkpt lat="42.83981" lon="0.20438">
        <ele>2034</ele>
        <time>2021-11-05T12:18:48Z</time>
      </trkpt>
      <trkpt lat="42.83988" lon="0.20441">
        <ele>2036</ele>
        <time>2021-11-05T12:18:54Z</time>
      </trkpt>
      <trkpt lat="42.83994" lon="0.20438">
        <ele>2036</ele>
        <time>2021-11-05T12:18:59Z</time>
      </trkpt>
      <trkpt lat="42.8401" lon="0.20439">
        <ele>2037</ele>
        <time>2021-11-05T12:19:12Z</time>
      </trkpt>
      <trkpt lat="42.84021" lon="0.20433">
        <ele>2035</ele>
        <time>2021-11-05T12:19:22Z</time>
      </trkpt>
      <trkpt lat="42.84038" lon="0.20437">
        <ele>2035</ele>
        <time>2021-11-05T12:19:36Z</time>
      </trkpt>
      <trkpt lat="42.84043" lon="0.20447">
        <ele>2038</ele>
        <time>2021-11-05T12:19:43Z</time>
      </trkpt>
      <trkpt lat="42.84059" lon="0.20462">
        <ele>2042</ele>
        <time>2021-11-05T12:19:58Z</time>
      </trkpt>
      <trkpt lat="42.84075" lon="0.20469">
        <ele>2044</ele>
        <time>2021-11-05T12:20:12Z</time>
      </trkpt>
      <trkpt lat="42.84099" lon="0.20499">
        <ele>2051</ele>
        <time>2021-11-05T12:20:38Z</time>
      </trkpt>
      <trkpt lat="42.8411" lon="0.20535">
        <ele>2058</ele>
        <time>2021-11-05T12:21:01Z</time>
      </trkpt>
      <trkpt lat="42.84114" lon="0.20542">
        <ele>2059</ele>
        <time>2021-11-05T12:21:06Z</time>
      </trkpt>
      <trkpt lat="42.84114" lon="0.20549">
        <ele>2061</ele>
        <time>2021-11-05T12:21:10Z</time>
      </trkpt>
      <trkpt lat="42.84145" lon="0.20625">
        <ele>2073</ele>
        <time>2021-11-05T12:22:01Z</time>
      </trkpt>
      <trkpt lat="42.84162" lon="0.20654">
        <ele>2076</ele>
        <time>2021-11-05T12:22:23Z</time>
      </trkpt>
      <trkpt lat="42.84168" lon="0.20669">
        <ele>2078</ele>
        <time>2021-11-05T12:22:33Z</time>
      </trkpt>
      <trkpt lat="42.84174" lon="0.20688">
        <ele>2083</ele>
        <time>2021-11-05T12:22:45Z</time>
      </trkpt>
      <trkpt lat="42.84213" lon="0.20774">
        <ele>2103</ele>
        <time>2021-11-05T12:23:44Z</time>
      </trkpt>
      <trkpt lat="42.84231" lon="0.20808">
        <ele>2110</ele>
        <time>2021-11-05T12:24:09Z</time>
      </trkpt>
      <trkpt lat="42.8426" lon="0.20838">
        <ele>2117</ele>
        <time>2021-11-05T12:24:38Z</time>
      </trkpt>
      <trkpt lat="42.84272" lon="0.20844">
        <ele>2120</ele>
        <time>2021-11-05T12:24:48Z</time>
      </trkpt>
      <trkpt lat="42.84306" lon="0.20852">
        <ele>2126</ele>
        <time>2021-11-05T12:25:16Z</time>
      </trkpt>
      <trkpt lat="42.84331" lon="0.20841">
        <ele>2126</ele>
        <time>2021-11-05T12:25:37Z</time>
      </trkpt>
      <trkpt lat="42.84346" lon="0.20838">
        <ele>2129</ele>
        <time>2021-11-05T12:25:49Z</time>
      </trkpt>
      <trkpt lat="42.84367" lon="0.20844">
        <ele>2135</ele>
        <time>2021-11-05T12:26:06Z</time>
      </trkpt>
      <trkpt lat="42.84386" lon="0.20845">
        <ele>2140</ele>
        <time>2021-11-05T12:26:22Z</time>
      </trkpt>
      <trkpt lat="42.84391" lon="0.20847">
        <ele>2141</ele>
        <time>2021-11-05T12:26:26Z</time>
      </trkpt>
      <trkpt lat="42.84396" lon="0.20846">
        <ele>2142</ele>
        <time>2021-11-05T12:26:30Z</time>
      </trkpt>
      <trkpt lat="42.84405" lon="0.20839">
        <ele>2144</ele>
        <time>2021-11-05T12:26:38Z</time>
      </trkpt>
      <trkpt lat="42.84428" lon="0.20811">
        <ele>2145</ele>
        <time>2021-11-05T12:27:03Z</time>
      </trkpt>
      <trkpt lat="42.84437" lon="0.20808">
        <ele>2145</ele>
        <time>2021-11-05T12:27:10Z</time>
      </trkpt>
      <trkpt lat="42.84451" lon="0.20794">
        <ele>2145</ele>
        <time>2021-11-05T12:27:24Z</time>
      </trkpt>
      <trkpt lat="42.84458" lon="0.20784">
        <ele>2144</ele>
        <time>2021-11-05T12:27:32Z</time>
      </trkpt>
      <trkpt lat="42.84464" lon="0.2078">
        <ele>2144</ele>
        <time>2021-11-05T12:27:38Z</time>
      </trkpt>
      <trkpt lat="42.84486" lon="0.20776">
        <ele>2146</ele>
        <time>2021-11-05T12:27:55Z</time>
      </trkpt>
      <trkpt lat="42.84497" lon="0.20777">
        <ele>2147</ele>
        <time>2021-11-05T12:28:04Z</time>
      </trkpt>
      <trkpt lat="42.84513" lon="0.20782">
        <ele>2148</ele>
        <time>2021-11-05T12:28:17Z</time>
      </trkpt>
      <trkpt lat="42.8453" lon="0.20796">
        <ele>2150</ele>
        <time>2021-11-05T12:28:33Z</time>
      </trkpt>
      <trkpt lat="42.84545" lon="0.2082">
        <ele>2151</ele>
        <time>2021-11-05T12:28:52Z</time>
      </trkpt>
      <trkpt lat="42.84547" lon="0.20839">
        <ele>2153</ele>
        <time>2021-11-05T12:29:03Z</time>
      </trkpt>
      <trkpt lat="42.84547" lon="0.20857">
        <ele>2155</ele>
        <time>2021-11-05T12:29:13Z</time>
      </trkpt>
      <trkpt lat="42.84551" lon="0.2088">
        <ele>2157</ele>
        <time>2021-11-05T12:29:27Z</time>
      </trkpt>
      <trkpt lat="42.84585" lon="0.20899">
        <ele>2158</ele>
        <time>2021-11-05T12:29:57Z</time>
      </trkpt>
      <trkpt lat="42.84604" lon="0.20921">
        <ele>2160</ele>
        <time>2021-11-05T12:30:17Z</time>
      </trkpt>
      <trkpt lat="42.84622" lon="0.20934">
        <ele>2162</ele>
        <time>2021-11-05T12:30:33Z</time>
      </trkpt>
      <trkpt lat="42.84643" lon="0.20942">
        <ele>2163</ele>
        <time>2021-11-05T12:30:51Z</time>
      </trkpt>
      <trkpt lat="42.84661" lon="0.20951">
        <ele>2163</ele>
        <time>2021-11-05T12:31:06Z</time>
      </trkpt>
      <trkpt lat="42.84675" lon="0.20963">
        <ele>2166</ele>
        <time>2021-11-05T12:31:19Z</time>
      </trkpt>
      <trkpt lat="42.84682" lon="0.20977">
        <ele>2169</ele>
        <time>2021-11-05T12:31:29Z</time>
      </trkpt>
      <trkpt lat="42.84692" lon="0.21011">
        <ele>2176</ele>
        <time>2021-11-05T12:31:51Z</time>
      </trkpt>
      <trkpt lat="42.84694" lon="0.21036">
        <ele>2181</ele>
        <time>2021-11-05T12:32:05Z</time>
      </trkpt>
      <trkpt lat="42.84709" lon="0.21084">
        <ele>2192</ele>
        <time>2021-11-05T12:32:36Z</time>
      </trkpt>
      <trkpt lat="42.8471" lon="0.21111">
        <ele>2194</ele>
        <time>2021-11-05T12:32:52Z</time>
      </trkpt>
      <trkpt lat="42.84708" lon="0.21134">
        <ele>2195</ele>
        <time>2021-11-05T12:33:05Z</time>
      </trkpt>
      <trkpt lat="42.8471" lon="0.21148">
        <ele>2197</ele>
        <time>2021-11-05T12:33:14Z</time>
      </trkpt>
      <trkpt lat="42.8471" lon="0.21177">
        <ele>2199</ele>
        <time>2021-11-05T12:33:31Z</time>
      </trkpt>
      <trkpt lat="42.84707" lon="0.21188">
        <ele>2199</ele>
        <time>2021-11-05T12:33:38Z</time>
      </trkpt>
      <trkpt lat="42.84708" lon="0.212">
        <ele>2200</ele>
        <time>2021-11-05T12:33:45Z</time>
      </trkpt>
      <trkpt lat="42.84705" lon="0.21223">
        <ele>2202</ele>
        <time>2021-11-05T12:33:59Z</time>
      </trkpt>
      <trkpt lat="42.84715" lon="0.2126">
        <ele>2205</ele>
        <time>2021-11-05T12:34:22Z</time>
      </trkpt>
      <trkpt lat="42.84721" lon="0.21271">
        <ele>2207</ele>
        <time>2021-11-05T12:34:30Z</time>
      </trkpt>
      <trkpt lat="42.84723" lon="0.2127">
        <ele>2207</ele>
        <time>2021-11-05T12:34:31Z</time>
      </trkpt>
      <trkpt lat="42.84728" lon="0.21279">
        <ele>2207</ele>
        <time>2021-11-05T12:34:38Z</time>
      </trkpt>
      <trkpt lat="42.84733" lon="0.21292">
        <ele>2208</ele>
        <time>2021-11-05T12:34:47Z</time>
      </trkpt>
      <trkpt lat="42.84752" lon="0.21309">
        <ele>2210</ele>
        <time>2021-11-05T12:35:05Z</time>
      </trkpt>
      <trkpt lat="42.8477" lon="0.21338">
        <ele>2213</ele>
        <time>2021-11-05T12:35:27Z</time>
      </trkpt>
      <trkpt lat="42.84782" lon="0.21346">
        <ele>2216</ele>
        <time>2021-11-05T12:35:38Z</time>
      </trkpt>
      <trkpt lat="42.84792" lon="0.2134">
        <ele>2216</ele>
        <time>2021-11-05T12:35:47Z</time>
      </trkpt>
      <trkpt lat="42.84792" lon="0.21336">
        <ele>2215</ele>
        <time>2021-11-05T12:35:49Z</time>
      </trkpt>
      <trkpt lat="42.84819" lon="0.21305">
        <ele>2215</ele>
        <time>2021-11-05T12:36:17Z</time>
      </trkpt>
      <trkpt lat="42.84843" lon="0.21278">
        <ele>2216</ele>
        <time>2021-11-05T12:36:42Z</time>
      </trkpt>
      <trkpt lat="42.84854" lon="0.21271">
        <ele>2216</ele>
        <time>2021-11-05T12:36:52Z</time>
      </trkpt>
      <trkpt lat="42.84861" lon="0.21263">
        <ele>2216</ele>
        <time>2021-11-05T12:36:59Z</time>
      </trkpt>
      <trkpt lat="42.84886" lon="0.21223">
        <ele>2218</ele>
        <time>2021-11-05T12:37:30Z</time>
      </trkpt>
      <trkpt lat="42.84901" lon="0.2121">
        <ele>2220</ele>
        <time>2021-11-05T12:37:44Z</time>
      </trkpt>
      <trkpt lat="42.84907" lon="0.21211">
        <ele>2220</ele>
        <time>2021-11-05T12:37:49Z</time>
      </trkpt>
      <trkpt lat="42.84907" lon="0.21201">
        <ele>2220</ele>
        <time>2021-11-05T12:37:55Z</time>
      </trkpt>
      <trkpt lat="42.84903" lon="0.21191">
        <ele>2220</ele>
        <time>2021-11-05T12:38:02Z</time>
      </trkpt>
      <trkpt lat="42.84903" lon="0.2118">
        <ele>2221</ele>
        <time>2021-11-05T12:38:08Z</time>
      </trkpt>
      <trkpt lat="42.84906" lon="0.21174">
        <ele>2221</ele>
        <time>2021-11-05T12:38:12Z</time>
      </trkpt>
      <trkpt lat="42.8491" lon="0.21173">
        <ele>2221</ele>
        <time>2021-11-05T12:38:16Z</time>
      </trkpt>
      <trkpt lat="42.84915" lon="0.21149">
        <ele>2222</ele>
        <time>2021-11-05T12:38:30Z</time>
      </trkpt>
      <trkpt lat="42.84912" lon="0.21123">
        <ele>2223</ele>
        <time>2021-11-05T12:38:46Z</time>
      </trkpt>
      <trkpt lat="42.84913" lon="0.21113">
        <ele>2224</ele>
        <time>2021-11-05T12:38:52Z</time>
      </trkpt>
      <trkpt lat="42.84914" lon="0.21107">
        <ele>2224</ele>
        <time>2021-11-05T12:38:55Z</time>
      </trkpt>
      <trkpt lat="42.84924" lon="0.21091">
        <ele>2224</ele>
        <time>2021-11-05T12:39:08Z</time>
      </trkpt>
      <trkpt lat="42.84932" lon="0.21066">
        <ele>2226</ele>
        <time>2021-11-05T12:39:24Z</time>
      </trkpt>
      <trkpt lat="42.84933" lon="0.21051">
        <ele>2227</ele>
        <time>2021-11-05T12:39:32Z</time>
      </trkpt>
      <trkpt lat="42.84957" lon="0.21015">
        <ele>2228</ele>
        <time>2021-11-05T12:40:01Z</time>
      </trkpt>
      <trkpt lat="42.8496" lon="0.20983">
        <ele>2230</ele>
        <time>2021-11-05T12:40:20Z</time>
      </trkpt>
      <trkpt lat="42.84974" lon="0.20965">
        <ele>2230</ele>
        <time>2021-11-05T12:40:35Z</time>
      </trkpt>
      <trkpt lat="42.85024" lon="0.2094">
        <ele>2226</ele>
        <time>2021-11-05T12:41:18Z</time>
      </trkpt>
      <trkpt lat="42.85041" lon="0.20924">
        <ele>2226</ele>
        <time>2021-11-05T12:41:35Z</time>
      </trkpt>
      <trkpt lat="42.85091" lon="0.20904">
        <ele>2225</ele>
        <time>2021-11-05T12:42:16Z</time>
      </trkpt>
      <trkpt lat="42.85109" lon="0.20882">
        <ele>2226</ele>
        <time>2021-11-05T12:42:36Z</time>
      </trkpt>
      <trkpt lat="42.8513" lon="0.20867">
        <ele>2225</ele>
        <time>2021-11-05T12:42:55Z</time>
      </trkpt>
      <trkpt lat="42.85146" lon="0.20858">
        <ele>2224</ele>
        <time>2021-11-05T12:43:08Z</time>
      </trkpt>
      <trkpt lat="42.8516" lon="0.20856">
        <ele>2222</ele>
        <time>2021-11-05T12:43:20Z</time>
      </trkpt>
      <trkpt lat="42.85184" lon="0.20857">
        <ele>2221</ele>
        <time>2021-11-05T12:43:39Z</time>
      </trkpt>
      <trkpt lat="42.85199" lon="0.20854">
        <ele>2221</ele>
        <time>2021-11-05T12:43:51Z</time>
      </trkpt>
      <trkpt lat="42.85213" lon="0.20846">
        <ele>2221</ele>
        <time>2021-11-05T12:44:03Z</time>
      </trkpt>
      <trkpt lat="42.85218" lon="0.20831">
        <ele>2221</ele>
        <time>2021-11-05T12:44:13Z</time>
      </trkpt>
      <trkpt lat="42.85226" lon="0.20821">
        <ele>2222</ele>
        <time>2021-11-05T12:44:22Z</time>
      </trkpt>
      <trkpt lat="42.85233" lon="0.20808">
        <ele>2223</ele>
        <time>2021-11-05T12:44:31Z</time>
      </trkpt>
      <trkpt lat="42.85239" lon="0.20805">
        <ele>2223</ele>
        <time>2021-11-05T12:44:36Z</time>
      </trkpt>
      <trkpt lat="42.85246" lon="0.20809">
        <ele>2222</ele>
        <time>2021-11-05T12:44:42Z</time>
      </trkpt>
      <trkpt lat="42.85254" lon="0.20821">
        <ele>2221</ele>
        <time>2021-11-05T12:44:52Z</time>
      </trkpt>
      <trkpt lat="42.85284" lon="0.20837">
        <ele>2222</ele>
        <time>2021-11-05T12:45:18Z</time>
      </trkpt>
      <trkpt lat="42.85303" lon="0.20852">
        <ele>2224</ele>
        <time>2021-11-05T12:45:35Z</time>
      </trkpt>
      <trkpt lat="42.85306" lon="0.20863">
        <ele>2225</ele>
        <time>2021-11-05T12:45:42Z</time>
      </trkpt>
      <trkpt lat="42.85311" lon="0.2087">
        <ele>2226</ele>
        <time>2021-11-05T12:45:48Z</time>
      </trkpt>
      <trkpt lat="42.85331" lon="0.20873">
        <ele>2228</ele>
        <time>2021-11-05T12:46:04Z</time>
      </trkpt>
      <trkpt lat="42.8536" lon="0.20871">
        <ele>2232</ele>
        <time>2021-11-05T12:46:27Z</time>
      </trkpt>
      <trkpt lat="42.85372" lon="0.20876">
        <ele>2234</ele>
        <time>2021-11-05T12:46:37Z</time>
      </trkpt>
      <trkpt lat="42.854" lon="0.20906">
        <ele>2239</ele>
        <time>2021-11-05T12:47:06Z</time>
      </trkpt>
      <trkpt lat="42.8544" lon="0.20928">
        <ele>2247</ele>
        <time>2021-11-05T12:47:40Z</time>
      </trkpt>
      <trkpt lat="42.85449" lon="0.20926">
        <ele>2249</ele>
        <time>2021-11-05T12:47:47Z</time>
      </trkpt>
      <trkpt lat="42.85453" lon="0.20911">
        <ele>2248</ele>
        <time>2021-11-05T12:47:57Z</time>
      </trkpt>
      <trkpt lat="42.85452" lon="0.20894">
        <ele>2249</ele>
        <time>2021-11-05T12:48:07Z</time>
      </trkpt>
      <trkpt lat="42.85453" lon="0.20887">
        <ele>2249</ele>
        <time>2021-11-05T12:48:11Z</time>
      </trkpt>
      <trkpt lat="42.85468" lon="0.20876">
        <ele>2254</ele>
        <time>2021-11-05T12:48:25Z</time>
      </trkpt>
      <trkpt lat="42.85503" lon="0.20858">
        <ele>2265</ele>
        <time>2021-11-05T12:48:55Z</time>
      </trkpt>
      <trkpt lat="42.85516" lon="0.20857">
        <ele>2266</ele>
        <time>2021-11-05T12:49:05Z</time>
      </trkpt>
      <trkpt lat="42.85521" lon="0.20847">
        <ele>2268</ele>
        <time>2021-11-05T12:49:12Z</time>
      </trkpt>
      <trkpt lat="42.85532" lon="0.2084">
        <ele>2270</ele>
        <time>2021-11-05T12:49:22Z</time>
      </trkpt>
      <trkpt lat="42.85535" lon="0.2083">
        <ele>2271</ele>
        <time>2021-11-05T12:49:28Z</time>
      </trkpt>
      <trkpt lat="42.85548" lon="0.20824">
        <ele>2273</ele>
        <time>2021-11-05T12:49:39Z</time>
      </trkpt>
      <trkpt lat="42.85564" lon="0.20805">
        <ele>2277</ele>
        <time>2021-11-05T12:49:56Z</time>
      </trkpt>
      <trkpt lat="42.85571" lon="0.20786">
        <ele>2280</ele>
        <time>2021-11-05T12:50:09Z</time>
      </trkpt>
      <trkpt lat="42.85596" lon="0.20756">
        <ele>2286</ele>
        <time>2021-11-05T12:50:35Z</time>
      </trkpt>
      <trkpt lat="42.85608" lon="0.20744">
        <ele>2288</ele>
        <time>2021-11-05T12:50:47Z</time>
      </trkpt>
      <trkpt lat="42.8563" lon="0.20738">
        <ele>2290</ele>
        <time>2021-11-05T12:51:05Z</time>
      </trkpt>
      <trkpt lat="42.85657" lon="0.20718">
        <ele>2294</ele>
        <time>2021-11-05T12:51:30Z</time>
      </trkpt>
      <trkpt lat="42.85669" lon="0.20712">
        <ele>2296</ele>
        <time>2021-11-05T12:51:40Z</time>
      </trkpt>
      <trkpt lat="42.85673" lon="0.20712">
        <ele>2297</ele>
        <time>2021-11-05T12:51:43Z</time>
      </trkpt>
      <trkpt lat="42.85699" lon="0.20737">
        <ele>2296</ele>
        <time>2021-11-05T12:52:09Z</time>
      </trkpt>
      <trkpt lat="42.85709" lon="0.20737">
        <ele>2297</ele>
        <time>2021-11-05T12:52:17Z</time>
      </trkpt>
      <trkpt lat="42.85716" lon="0.20731">
        <ele>2299</ele>
        <time>2021-11-05T12:52:23Z</time>
      </trkpt>
      <trkpt lat="42.85717" lon="0.20725">
        <ele>2300</ele>
        <time>2021-11-05T12:52:27Z</time>
      </trkpt>
      <trkpt lat="42.85719" lon="0.20724">
        <ele>2301</ele>
        <time>2021-11-05T12:52:29Z</time>
      </trkpt>
      <trkpt lat="42.85722" lon="0.20729">
        <ele>2300</ele>
        <time>2021-11-05T12:52:32Z</time>
      </trkpt>
      <trkpt lat="42.85735" lon="0.20728">
        <ele>2302</ele>
        <time>2021-11-05T12:52:43Z</time>
      </trkpt>
      <trkpt lat="42.8574" lon="0.20746">
        <ele>2301</ele>
        <time>2021-11-05T12:52:54Z</time>
      </trkpt>
      <trkpt lat="42.85745" lon="0.20752">
        <ele>2301</ele>
        <time>2021-11-05T12:53:00Z</time>
      </trkpt>
      <trkpt lat="42.8575" lon="0.20752">
        <ele>2302</ele>
        <time>2021-11-05T12:53:04Z</time>
      </trkpt>
      <trkpt lat="42.85765" lon="0.20739">
        <ele>2305</ele>
        <time>2021-11-05T12:53:18Z</time>
      </trkpt>
      <trkpt lat="42.85769" lon="0.20741">
        <ele>2306</ele>
        <time>2021-11-05T12:53:21Z</time>
      </trkpt>
      <trkpt lat="42.85771" lon="0.20744">
        <ele>2306</ele>
        <time>2021-11-05T12:53:24Z</time>
      </trkpt>
      <trkpt lat="42.85776" lon="0.20748">
        <ele>2306</ele>
        <time>2021-11-05T12:53:28Z</time>
      </trkpt>
      <trkpt lat="42.85786" lon="0.20748">
        <ele>2307</ele>
        <time>2021-11-05T12:53:36Z</time>
      </trkpt>
      <trkpt lat="42.85791" lon="0.20747">
        <ele>2308</ele>
        <time>2021-11-05T12:53:40Z</time>
      </trkpt>
      <trkpt lat="42.85793" lon="0.20742">
        <ele>2309</ele>
        <time>2021-11-05T12:53:44Z</time>
      </trkpt>
      <trkpt lat="42.85798" lon="0.20739">
        <ele>2310</ele>
        <time>2021-11-05T12:53:48Z</time>
      </trkpt>
      <trkpt lat="42.85802" lon="0.20739">
        <ele>2310</ele>
        <time>2021-11-05T12:53:51Z</time>
      </trkpt>
      <trkpt lat="42.8581" lon="0.20734">
        <ele>2312</ele>
        <time>2021-11-05T12:53:58Z</time>
      </trkpt>
      <trkpt lat="42.85818" lon="0.20734">
        <ele>2313</ele>
        <time>2021-11-05T12:54:05Z</time>
      </trkpt>
      <trkpt lat="42.85822" lon="0.20735">
        <ele>2314</ele>
        <time>2021-11-05T12:54:08Z</time>
      </trkpt>
      <trkpt lat="42.85825" lon="0.20739">
        <ele>2314</ele>
        <time>2021-11-05T12:54:11Z</time>
      </trkpt>
      <trkpt lat="42.85834" lon="0.20743">
        <ele>2315</ele>
        <time>2021-11-05T12:54:19Z</time>
      </trkpt>
      <trkpt lat="42.85847" lon="0.20742">
        <ele>2316</ele>
        <time>2021-11-05T12:54:29Z</time>
      </trkpt>
      <trkpt lat="42.85855" lon="0.20744">
        <ele>2316</ele>
        <time>2021-11-05T12:54:36Z</time>
      </trkpt>
      <trkpt lat="42.85871" lon="0.20758">
        <ele>2316</ele>
        <time>2021-11-05T12:54:51Z</time>
      </trkpt>
      <trkpt lat="42.85876" lon="0.20759">
        <ele>2317</ele>
        <time>2021-11-05T12:54:55Z</time>
      </trkpt>
      <trkpt lat="42.85897" lon="0.20752">
        <ele>2319</ele>
        <time>2021-11-05T12:55:12Z</time>
      </trkpt>
      <trkpt lat="42.85902" lon="0.20751">
        <ele>2320</ele>
        <time>2021-11-05T12:55:16Z</time>
      </trkpt>
      <trkpt lat="42.85908" lon="0.20754">
        <ele>2320</ele>
        <time>2021-11-05T12:55:21Z</time>
      </trkpt>
      <trkpt lat="42.85914" lon="0.20751">
        <ele>2321</ele>
        <time>2021-11-05T12:55:27Z</time>
      </trkpt>
      <trkpt lat="42.85919" lon="0.20742">
        <ele>2322</ele>
        <time>2021-11-05T12:55:33Z</time>
      </trkpt>
      <trkpt lat="42.85924" lon="0.2074">
        <ele>2322</ele>
        <time>2021-11-05T12:55:37Z</time>
      </trkpt>
      <trkpt lat="42.85929" lon="0.20733">
        <ele>2323</ele>
        <time>2021-11-05T12:55:43Z</time>
      </trkpt>
      <trkpt lat="42.85928" lon="0.20727">
        <ele>2324</ele>
        <time>2021-11-05T12:55:47Z</time>
      </trkpt>
      <trkpt lat="42.85932" lon="0.20718">
        <ele>2325</ele>
        <time>2021-11-05T12:55:53Z</time>
      </trkpt>
      <trkpt lat="42.8595" lon="0.20697">
        <ele>2328</ele>
        <time>2021-11-05T12:56:12Z</time>
      </trkpt>
      <trkpt lat="42.85964" lon="0.20693">
        <ele>2329</ele>
        <time>2021-11-05T12:56:23Z</time>
      </trkpt>
      <trkpt lat="42.85966" lon="0.2069">
        <ele>2330</ele>
        <time>2021-11-05T12:56:26Z</time>
      </trkpt>
      <trkpt lat="42.85969" lon="0.20691">
        <ele>2330</ele>
        <time>2021-11-05T12:56:28Z</time>
      </trkpt>
      <trkpt lat="42.85971" lon="0.20688">
        <ele>2330</ele>
        <time>2021-11-05T12:56:31Z</time>
      </trkpt>
      <trkpt lat="42.8598" lon="0.20687">
        <ele>2331</ele>
        <time>2021-11-05T12:56:38Z</time>
      </trkpt>
      <trkpt lat="42.85986" lon="0.20684">
        <ele>2332</ele>
        <time>2021-11-05T12:56:43Z</time>
      </trkpt>
      <trkpt lat="42.85989" lon="0.2068">
        <ele>2333</ele>
        <time>2021-11-05T12:56:46Z</time>
      </trkpt>
      <trkpt lat="42.85998" lon="0.20677">
        <ele>2334</ele>
        <time>2021-11-05T12:56:54Z</time>
      </trkpt>
      <trkpt lat="42.86014" lon="0.20683">
        <ele>2338</ele>
        <time>2021-11-05T12:57:07Z</time>
      </trkpt>
      <trkpt lat="42.86023" lon="0.20693">
        <ele>2339</ele>
        <time>2021-11-05T12:57:16Z</time>
      </trkpt>
      <trkpt lat="42.86032" lon="0.20693">
        <ele>2342</ele>
        <time>2021-11-05T12:57:23Z</time>
      </trkpt>
      <trkpt lat="42.86041" lon="0.20683">
        <ele>2345</ele>
        <time>2021-11-05T12:57:33Z</time>
      </trkpt>
      <trkpt lat="42.86051" lon="0.20682">
        <ele>2348</ele>
        <time>2021-11-05T12:57:41Z</time>
      </trkpt>
      <trkpt lat="42.86055" lon="0.20686">
        <ele>2349</ele>
        <time>2021-11-05T12:57:45Z</time>
      </trkpt>
      <trkpt lat="42.86072" lon="0.2069">
        <ele>2354</ele>
        <time>2021-11-05T12:57:59Z</time>
      </trkpt>
      <trkpt lat="42.86075" lon="0.20698">
        <ele>2354</ele>
        <time>2021-11-05T12:58:04Z</time>
      </trkpt>
      <trkpt lat="42.86079" lon="0.20698">
        <ele>2355</ele>
        <time>2021-11-05T12:58:07Z</time>
      </trkpt>
      <trkpt lat="42.86086" lon="0.20694">
        <ele>2358</ele>
        <time>2021-11-05T12:58:13Z</time>
      </trkpt>
      <trkpt lat="42.86089" lon="0.20697">
        <ele>2359</ele>
        <time>2021-11-05T12:58:16Z</time>
      </trkpt>
      <trkpt lat="42.86097" lon="0.20698">
        <ele>2362</ele>
        <time>2021-11-05T12:58:23Z</time>
      </trkpt>
      <trkpt lat="42.86099" lon="0.207">
        <ele>2362</ele>
        <time>2021-11-05T12:58:25Z</time>
      </trkpt>
      <trkpt lat="42.86101" lon="0.207">
        <ele>2363</ele>
        <time>2021-11-05T12:58:26Z</time>
      </trkpt>
      <trkpt lat="42.86104" lon="0.2069">
        <ele>2365</ele>
        <time>2021-11-05T12:58:32Z</time>
      </trkpt>
      <trkpt lat="42.86118" lon="0.20643">
        <ele>2370</ele>
        <time>2021-11-05T12:59:02Z</time>
      </trkpt>
      <trkpt lat="42.86137" lon="0.2065">
        <ele>2376</ele>
        <time>2021-11-05T12:59:18Z</time>
      </trkpt>
      <trkpt lat="42.86154" lon="0.20667">
        <ele>2382</ele>
        <time>2021-11-05T12:59:35Z</time>
      </trkpt>
      <trkpt lat="42.86161" lon="0.20679">
        <ele>2384</ele>
        <time>2021-11-05T12:59:44Z</time>
      </trkpt>
      <trkpt lat="42.86167" lon="0.20686">
        <ele>2386</ele>
        <time>2021-11-05T12:59:50Z</time>
      </trkpt>
      <trkpt lat="42.86173" lon="0.20688">
        <ele>2387</ele>
        <time>2021-11-05T12:59:55Z</time>
      </trkpt>
      <trkpt lat="42.86177" lon="0.20695">
        <ele>2387</ele>
        <time>2021-11-05T13:00:00Z</time>
      </trkpt>
      <trkpt lat="42.86199" lon="0.20697">
        <ele>2389</ele>
        <time>2021-11-05T13:00:18Z</time>
      </trkpt>
      <trkpt lat="42.86208" lon="0.20694">
        <ele>2390</ele>
        <time>2021-11-05T13:00:25Z</time>
      </trkpt>
      <trkpt lat="42.86215" lon="0.20696">
        <ele>2390</ele>
        <time>2021-11-05T13:00:31Z</time>
      </trkpt>
      <trkpt lat="42.86226" lon="0.20697">
        <ele>2391</ele>
        <time>2021-11-05T13:00:40Z</time>
      </trkpt>
      <trkpt lat="42.86246" lon="0.20705">
        <ele>2394</ele>
        <time>2021-11-05T13:00:57Z</time>
      </trkpt>
      <trkpt lat="42.86248" lon="0.20708">
        <ele>2394</ele>
        <time>2021-11-05T13:00:59Z</time>
      </trkpt>
      <trkpt lat="42.86262" lon="0.20712">
        <ele>2397</ele>
        <time>2021-11-05T13:01:11Z</time>
      </trkpt>
      <trkpt lat="42.86267" lon="0.20711">
        <ele>2397</ele>
        <time>2021-11-05T13:01:15Z</time>
      </trkpt>
      <trkpt lat="42.86271" lon="0.20718">
        <ele>2399</ele>
        <time>2021-11-05T13:01:20Z</time>
      </trkpt>
      <trkpt lat="42.86288" lon="0.20727">
        <ele>2402</ele>
        <time>2021-11-05T13:01:34Z</time>
      </trkpt>
      <trkpt lat="42.86292" lon="0.20722">
        <ele>2402</ele>
        <time>2021-11-05T13:01:39Z</time>
      </trkpt>
      <trkpt lat="42.86298" lon="0.20723">
        <ele>2403</ele>
        <time>2021-11-05T13:01:44Z</time>
      </trkpt>
      <trkpt lat="42.86305" lon="0.20714">
        <ele>2404</ele>
        <time>2021-11-05T13:01:51Z</time>
      </trkpt>
      <trkpt lat="42.86311" lon="0.20712">
        <ele>2404</ele>
        <time>2021-11-05T13:01:56Z</time>
      </trkpt>
      <trkpt lat="42.86331" lon="0.20721">
        <ele>2408</ele>
        <time>2021-11-05T13:02:13Z</time>
      </trkpt>
      <trkpt lat="42.86342" lon="0.2072">
        <ele>2409</ele>
        <time>2021-11-05T13:02:22Z</time>
      </trkpt>
      <trkpt lat="42.86347" lon="0.20723">
        <ele>2410</ele>
        <time>2021-11-05T13:02:26Z</time>
      </trkpt>
      <trkpt lat="42.86368" lon="0.20706">
        <ele>2411</ele>
        <time>2021-11-05T13:02:46Z</time>
      </trkpt>
      <trkpt lat="42.86373" lon="0.207">
        <ele>2411</ele>
        <time>2021-11-05T13:02:51Z</time>
      </trkpt>
      <trkpt lat="42.86378" lon="0.20698">
        <ele>2411</ele>
        <time>2021-11-05T13:02:55Z</time>
      </trkpt>
      <trkpt lat="42.86389" lon="0.20701">
        <ele>2412</ele>
        <time>2021-11-05T13:03:04Z</time>
      </trkpt>
      <trkpt lat="42.86393" lon="0.20699">
        <ele>2413</ele>
        <time>2021-11-05T13:03:08Z</time>
      </trkpt>
      <trkpt lat="42.86401" lon="0.20699">
        <ele>2413</ele>
        <time>2021-11-05T13:03:14Z</time>
      </trkpt>
      <trkpt lat="42.86407" lon="0.20696">
        <ele>2414</ele>
        <time>2021-11-05T13:03:19Z</time>
      </trkpt>
      <trkpt lat="42.86416" lon="0.20698">
        <ele>2415</ele>
        <time>2021-11-05T13:03:27Z</time>
      </trkpt>
      <trkpt lat="42.8642" lon="0.20696">
        <ele>2415</ele>
        <time>2021-11-05T13:03:30Z</time>
      </trkpt>
      <trkpt lat="42.86426" lon="0.20699">
        <ele>2415</ele>
        <time>2021-11-05T13:03:35Z</time>
      </trkpt>
      <trkpt lat="42.86437" lon="0.207">
        <ele>2416</ele>
        <time>2021-11-05T13:03:44Z</time>
      </trkpt>
      <trkpt lat="42.86452" lon="0.20706">
        <ele>2418</ele>
        <time>2021-11-05T13:03:56Z</time>
      </trkpt>
      <trkpt lat="42.86461" lon="0.20702">
        <ele>2418</ele>
        <time>2021-11-05T13:04:04Z</time>
      </trkpt>
      <trkpt lat="42.86473" lon="0.20703">
        <ele>2419</ele>
        <time>2021-11-05T13:04:14Z</time>
      </trkpt>
      <trkpt lat="42.86477" lon="0.20698">
        <ele>2419</ele>
        <time>2021-11-05T13:04:18Z</time>
      </trkpt>
      <trkpt lat="42.86482" lon="0.20698">
        <ele>2420</ele>
        <time>2021-11-05T13:04:22Z</time>
      </trkpt>
      <trkpt lat="42.86495" lon="0.20678">
        <ele>2419</ele>
        <time>2021-11-05T13:04:38Z</time>
      </trkpt>
      <trkpt lat="42.86505" lon="0.20674">
        <ele>2421</ele>
        <time>2021-11-05T13:04:46Z</time>
      </trkpt>
      <trkpt lat="42.86511" lon="0.20666">
        <ele>2422</ele>
        <time>2021-11-05T13:04:53Z</time>
      </trkpt>
      <trkpt lat="42.86519" lon="0.20666">
        <ele>2424</ele>
        <time>2021-11-05T13:04:59Z</time>
      </trkpt>
      <trkpt lat="42.86524" lon="0.20655">
        <ele>2426</ele>
        <time>2021-11-05T13:05:07Z</time>
      </trkpt>
      <trkpt lat="42.8653" lon="0.20654">
        <ele>2428</ele>
        <time>2021-11-05T13:05:12Z</time>
      </trkpt>
      <trkpt lat="42.86537" lon="0.20658">
        <ele>2429</ele>
        <time>2021-11-05T13:05:18Z</time>
      </trkpt>
      <trkpt lat="42.86539" lon="0.20656">
        <ele>2430</ele>
        <time>2021-11-05T13:05:20Z</time>
      </trkpt>
      <trkpt lat="42.86542" lon="0.20657">
        <ele>2430</ele>
        <time>2021-11-05T13:05:22Z</time>
      </trkpt>
      <trkpt lat="42.86549" lon="0.20653">
        <ele>2433</ele>
        <time>2021-11-05T13:05:28Z</time>
      </trkpt>
      <trkpt lat="42.86559" lon="0.20651">
        <ele>2435</ele>
        <time>2021-11-05T13:05:36Z</time>
      </trkpt>
      <trkpt lat="42.86575" lon="0.2066">
        <ele>2438</ele>
        <time>2021-11-05T13:05:50Z</time>
      </trkpt>
      <trkpt lat="42.86577" lon="0.20663">
        <ele>2439</ele>
        <time>2021-11-05T13:05:52Z</time>
      </trkpt>
      <trkpt lat="42.86596" lon="0.20666">
        <ele>2446</ele>
        <time>2021-11-05T13:06:08Z</time>
      </trkpt>
      <trkpt lat="42.86599" lon="0.20672">
        <ele>2449</ele>
        <time>2021-11-05T13:06:12Z</time>
      </trkpt>
      <trkpt lat="42.86604" lon="0.20673">
        <ele>2452</ele>
        <time>2021-11-05T13:06:16Z</time>
      </trkpt>
      <trkpt lat="42.86606" lon="0.20676">
        <ele>2454</ele>
        <time>2021-11-05T13:06:18Z</time>
      </trkpt>
      <trkpt lat="42.86608" lon="0.20676">
        <ele>2455</ele>
        <time>2021-11-05T13:06:20Z</time>
      </trkpt>
      <trkpt lat="42.86609" lon="0.20681">
        <ele>2457</ele>
        <time>2021-11-05T13:06:23Z</time>
      </trkpt>
      <trkpt lat="42.86618" lon="0.20682">
        <ele>2462</ele>
        <time>2021-11-05T13:06:30Z</time>
      </trkpt>
      <trkpt lat="42.86617" lon="0.20688">
        <ele>2464</ele>
        <time>2021-11-05T13:06:34Z</time>
      </trkpt>
      <trkpt lat="42.8663" lon="0.20693">
        <ele>2472</ele>
        <time>2021-11-05T13:06:45Z</time>
      </trkpt>
      <trkpt lat="42.86645" lon="0.20682">
        <ele>2476</ele>
        <time>2021-11-05T13:06:58Z</time>
      </trkpt>
      <trkpt lat="42.86668" lon="0.2066">
        <ele>2480</ele>
        <time>2021-11-05T13:07:21Z</time>
      </trkpt>
      <trkpt lat="42.8667" lon="0.2066">
        <ele>2481</ele>
        <time>2021-11-05T13:07:23Z</time>
      </trkpt>
      <trkpt lat="42.86669" lon="0.20664">
        <ele>2480</ele>
        <time>2021-11-05T13:07:25Z</time>
      </trkpt>
      <trkpt lat="42.86671" lon="0.20667">
        <ele>2481</ele>
        <time>2021-11-05T13:07:27Z</time>
      </trkpt>
      <trkpt lat="42.86674" lon="0.20668">
        <ele>2481</ele>
        <time>2021-11-05T13:07:30Z</time>
      </trkpt>
      <trkpt lat="42.86678" lon="0.20666">
        <ele>2481</ele>
        <time>2021-11-05T13:07:33Z</time>
      </trkpt>
      <trkpt lat="42.86683" lon="0.2066">
        <ele>2482</ele>
        <time>2021-11-05T13:07:39Z</time>
      </trkpt>
      <trkpt lat="42.86684" lon="0.2065">
        <ele>2482</ele>
        <time>2021-11-05T13:07:45Z</time>
      </trkpt>
      <trkpt lat="42.86686" lon="0.20651">
        <ele>2482</ele>
        <time>2021-11-05T13:07:46Z</time>
      </trkpt>
      <trkpt lat="42.86687" lon="0.2065">
        <ele>2482</ele>
        <time>2021-11-05T13:07:47Z</time>
      </trkpt>
      <trkpt lat="42.86686" lon="0.20639">
        <ele>2482</ele>
        <time>2021-11-05T13:07:54Z</time>
      </trkpt>
      <trkpt lat="42.86689" lon="0.20638">
        <ele>2483</ele>
        <time>2021-11-05T13:07:56Z</time>
      </trkpt>
      <trkpt lat="42.86704" lon="0.20642">
        <ele>2484</ele>
        <time>2021-11-05T13:08:08Z</time>
      </trkpt>
      <trkpt lat="42.86706" lon="0.20646">
        <ele>2484</ele>
        <time>2021-11-05T13:08:11Z</time>
      </trkpt>
      <trkpt lat="42.86709" lon="0.20648">
        <ele>2484</ele>
        <time>2021-11-05T13:08:14Z</time>
      </trkpt>
      <trkpt lat="42.86712" lon="0.20648">
        <ele>2485</ele>
        <time>2021-11-05T13:08:16Z</time>
      </trkpt>
      <trkpt lat="42.86716" lon="0.20641">
        <ele>2485</ele>
        <time>2021-11-05T13:08:22Z</time>
      </trkpt>
      <trkpt lat="42.86717" lon="0.20641">
        <ele>2485</ele>
        <time>2021-11-05T13:08:22Z</time>
      </trkpt>
      <trkpt lat="42.86715" lon="0.2065">
        <ele>2485</ele>
        <time>2021-11-05T13:08:28Z</time>
      </trkpt>
      <trkpt lat="42.86716" lon="0.20658">
        <ele>2485</ele>
        <time>2021-11-05T13:08:33Z</time>
      </trkpt>
      <trkpt lat="42.86712" lon="0.20668">
        <ele>2485</ele>
        <time>2021-11-05T13:08:39Z</time>
      </trkpt>
      <trkpt lat="42.86712" lon="0.20684">
        <ele>2490</ele>
        <time>2021-11-05T13:08:49Z</time>
      </trkpt>
      <trkpt lat="42.8671" lon="0.20709">
        <ele>2498</ele>
        <time>2021-11-05T13:09:03Z</time>
      </trkpt>
      <trkpt lat="42.86706" lon="0.20724">
        <ele>2503</ele>
        <time>2021-11-05T13:09:13Z</time>
      </trkpt>
      <trkpt lat="42.86701" lon="0.20758">
        <ele>2516</ele>
        <time>2021-11-05T13:09:33Z</time>
      </trkpt>
      <trkpt lat="42.86697" lon="0.20759">
        <ele>2517</ele>
        <time>2021-11-05T13:09:36Z</time>
      </trkpt>
      <trkpt lat="42.86697" lon="0.20765">
        <ele>2519</ele>
        <time>2021-11-05T13:09:40Z</time>
      </trkpt>
      <trkpt lat="42.86687" lon="0.20764">
        <ele>2521</ele>
        <time>2021-11-05T13:09:48Z</time>
      </trkpt>
      <trkpt lat="42.86689" lon="0.20772">
        <ele>2524</ele>
        <time>2021-11-05T13:09:53Z</time>
      </trkpt>
      <trkpt lat="42.86689" lon="0.20779">
        <ele>2527</ele>
        <time>2021-11-05T13:09:57Z</time>
      </trkpt>
      <trkpt lat="42.86692" lon="0.20783">
        <ele>2528</ele>
        <time>2021-11-05T13:10:00Z</time>
      </trkpt>
      <trkpt lat="42.86691" lon="0.20794">
        <ele>2533</ele>
        <time>2021-11-05T13:10:07Z</time>
      </trkpt>
      <trkpt lat="42.86693" lon="0.20809">
        <ele>2539</ele>
        <time>2021-11-05T13:10:16Z</time>
      </trkpt>
      <trkpt lat="42.86679" lon="0.20812">
        <ele>2544</ele>
        <time>2021-11-05T13:10:27Z</time>
      </trkpt>
      <trkpt lat="42.86671" lon="0.2082">
        <ele>2550</ele>
        <time>2021-11-05T13:10:35Z</time>
      </trkpt>
      <trkpt lat="42.86671" lon="0.2083">
        <ele>2555</ele>
        <time>2021-11-05T13:10:41Z</time>
      </trkpt>
      <trkpt lat="42.86682" lon="0.2085">
        <ele>2561</ele>
        <time>2021-11-05T13:10:56Z</time>
      </trkpt>
      <trkpt lat="42.86682" lon="0.20886">
        <ele>2579</ele>
        <time>2021-11-05T13:11:17Z</time>
      </trkpt>
      <trkpt lat="42.86684" lon="0.20903">
        <ele>2586</ele>
        <time>2021-11-05T13:11:27Z</time>
      </trkpt>
      <trkpt lat="42.86689" lon="0.20926">
        <ele>2593</ele>
        <time>2021-11-05T13:11:41Z</time>
      </trkpt>
      <trkpt lat="42.86691" lon="0.20964">
        <ele>2604</ele>
        <time>2021-11-05T13:12:03Z</time>
      </trkpt>
      <trkpt lat="42.86686" lon="0.21007">
        <ele>2623</ele>
        <time>2021-11-05T13:12:29Z</time>
      </trkpt>
      <trkpt lat="42.86678" lon="0.21028">
        <ele>2637</ele>
        <time>2021-11-05T13:12:43Z</time>
      </trkpt>
      <trkpt lat="42.86674" lon="0.21051">
        <ele>2648</ele>
        <time>2021-11-05T13:12:57Z</time>
      </trkpt>
      <trkpt lat="42.86661" lon="0.21075">
        <ele>2660</ele>
        <time>2021-11-05T13:13:14Z</time>
      </trkpt>
      <trkpt lat="42.86657" lon="0.21093">
        <ele>2662</ele>
        <time>2021-11-05T13:13:25Z</time>
      </trkpt>
      <trkpt lat="42.8665" lon="0.21109">
        <ele>2661</ele>
        <time>2021-11-05T13:13:36Z</time>
      </trkpt>
      <trkpt lat="42.86659" lon="0.21122">
        <ele>2666</ele>
        <time>2021-11-05T13:13:47Z</time>
      </trkpt>
      <trkpt lat="42.86671" lon="0.21144">
        <ele>2670</ele>
        <time>2021-11-05T13:14:03Z</time>
      </trkpt>
      <trkpt lat="42.86686" lon="0.21159">
        <ele>2669</ele>
        <time>2021-11-05T13:14:18Z</time>
      </trkpt>
      <trkpt lat="42.86704" lon="0.21192">
        <ele>2666</ele>
        <time>2021-11-05T13:14:42Z</time>
      </trkpt>
      <trkpt lat="42.86727" lon="0.21215">
        <ele>2666</ele>
        <time>2021-11-05T13:15:05Z</time>
      </trkpt>
      <trkpt lat="42.86765" lon="0.21265">
        <ele>2665</ele>
        <time>2021-11-05T13:15:47Z</time>
      </trkpt>
      <trkpt lat="42.86804" lon="0.21308">
        <ele>2658</ele>
        <time>2021-11-05T13:16:27Z</time>
      </trkpt>
      <trkpt lat="42.86837" lon="0.21352">
        <ele>2663</ele>
        <time>2021-11-05T13:17:04Z</time>
      </trkpt>
      <trkpt lat="42.86863" lon="0.21365">
        <ele>2663</ele>
        <time>2021-11-05T13:17:26Z</time>
      </trkpt>
      <trkpt lat="42.86907" lon="0.21398">
        <ele>2674</ele>
        <time>2021-11-05T13:18:06Z</time>
      </trkpt>
      <trkpt lat="42.86919" lon="0.21411">
        <ele>2679</ele>
        <time>2021-11-05T13:18:19Z</time>
      </trkpt>
      <trkpt lat="42.8693" lon="0.21418">
        <ele>2675</ele>
        <time>2021-11-05T13:18:28Z</time>
      </trkpt>
      <trkpt lat="42.86942" lon="0.21429">
        <ele>2670</ele>
        <time>2021-11-05T13:18:40Z</time>
      </trkpt>
      <trkpt lat="42.86945" lon="0.21442">
        <ele>2669</ele>
        <time>2021-11-05T13:18:48Z</time>
      </trkpt>
      <trkpt lat="42.86947" lon="0.2147">
        <ele>2669</ele>
        <time>2021-11-05T13:19:04Z</time>
      </trkpt>
      <trkpt lat="42.86955" lon="0.21473">
        <ele>2665</ele>
        <time>2021-11-05T13:19:11Z</time>
      </trkpt>
      <trkpt lat="42.86961" lon="0.21483">
        <ele>2663</ele>
        <time>2021-11-05T13:19:19Z</time>
      </trkpt>
      <trkpt lat="42.86956" lon="0.21518">
        <ele>2667</ele>
        <time>2021-11-05T13:19:40Z</time>
      </trkpt>
      <trkpt lat="42.86956" lon="0.21533">
        <ele>2667</ele>
        <time>2021-11-05T13:19:48Z</time>
      </trkpt>
      <trkpt lat="42.86954" lon="0.2156">
        <ele>2668</ele>
        <time>2021-11-05T13:20:04Z</time>
      </trkpt>
      <trkpt lat="42.86952" lon="0.21572">
        <ele>2669</ele>
        <time>2021-11-05T13:20:12Z</time>
      </trkpt>
      <trkpt lat="42.86936" lon="0.21625">
        <ele>2667</ele>
        <time>2021-11-05T13:20:45Z</time>
      </trkpt>
      <trkpt lat="42.86923" lon="0.2164">
        <ele>2665</ele>
        <time>2021-11-05T13:20:59Z</time>
      </trkpt>
      <trkpt lat="42.86808" lon="0.21749">
        <ele>2605</ele>
        <time>2021-11-05T13:22:51Z</time>
      </trkpt>
      <trkpt lat="42.86815" lon="0.2175">
        <ele>2608</ele>
        <time>2021-11-05T13:22:57Z</time>
      </trkpt>
      <trkpt lat="42.86798" lon="0.21773">
        <ele>2597</ele>
        <time>2021-11-05T13:23:16Z</time>
      </trkpt>
      <trkpt lat="42.86785" lon="0.21804">
        <ele>2587</ele>
        <time>2021-11-05T13:23:37Z</time>
      </trkpt>
      <trkpt lat="42.86781" lon="0.21828">
        <ele>2582</ele>
        <time>2021-11-05T13:23:51Z</time>
      </trkpt>
      <trkpt lat="42.86768" lon="0.21842">
        <ele>2574</ele>
        <time>2021-11-05T13:24:04Z</time>
      </trkpt>
      <trkpt lat="42.86756" lon="0.21863">
        <ele>2565</ele>
        <time>2021-11-05T13:24:20Z</time>
      </trkpt>
      <trkpt lat="42.86751" lon="0.21883">
        <ele>2559</ele>
        <time>2021-11-05T13:24:32Z</time>
      </trkpt>
      <trkpt lat="42.86745" lon="0.21919">
        <ele>2549</ele>
        <time>2021-11-05T13:24:54Z</time>
      </trkpt>
      <trkpt lat="42.86735" lon="0.21958">
        <ele>2541</ele>
        <time>2021-11-05T13:25:18Z</time>
      </trkpt>
      <trkpt lat="42.86736" lon="0.21983">
        <ele>2536</ele>
        <time>2021-11-05T13:25:33Z</time>
      </trkpt>
      <trkpt lat="42.86733" lon="0.22052">
        <ele>2531</ele>
        <time>2021-11-05T13:26:14Z</time>
      </trkpt>
      <trkpt lat="42.86735" lon="0.22092">
        <ele>2529</ele>
        <time>2021-11-05T13:26:37Z</time>
      </trkpt>
      <trkpt lat="42.8674" lon="0.22121">
        <ele>2527</ele>
        <time>2021-11-05T13:26:55Z</time>
      </trkpt>
      <trkpt lat="42.86745" lon="0.22172">
        <ele>2523</ele>
        <time>2021-11-05T13:27:25Z</time>
      </trkpt>
      <trkpt lat="42.86744" lon="0.22196">
        <ele>2521</ele>
        <time>2021-11-05T13:27:39Z</time>
      </trkpt>
      <trkpt lat="42.86753" lon="0.22216">
        <ele>2519</ele>
        <time>2021-11-05T13:27:53Z</time>
      </trkpt>
      <trkpt lat="42.86754" lon="0.22246">
        <ele>2516</ele>
        <time>2021-11-05T13:28:10Z</time>
      </trkpt>
      <trkpt lat="42.86762" lon="0.2227">
        <ele>2509</ele>
        <time>2021-11-05T13:28:26Z</time>
      </trkpt>
      <trkpt lat="42.8676" lon="0.22299">
        <ele>2497</ele>
        <time>2021-11-05T13:28:43Z</time>
      </trkpt>
      <trkpt lat="42.86761" lon="0.22347">
        <ele>2476</ele>
        <time>2021-11-05T13:29:11Z</time>
      </trkpt>
      <trkpt lat="42.86765" lon="0.22394">
        <ele>2457</ele>
        <time>2021-11-05T13:29:39Z</time>
      </trkpt>
      <trkpt lat="42.86767" lon="0.22464">
        <ele>2434</ele>
        <time>2021-11-05T13:30:20Z</time>
      </trkpt>
      <trkpt lat="42.86762" lon="0.22475">
        <ele>2431</ele>
        <time>2021-11-05T13:30:27Z</time>
      </trkpt>
      <trkpt lat="42.86747" lon="0.22515">
        <ele>2421</ele>
        <time>2021-11-05T13:30:54Z</time>
      </trkpt>
      <trkpt lat="42.86725" lon="0.22553">
        <ele>2417</ele>
        <time>2021-11-05T13:31:22Z</time>
      </trkpt>
      <trkpt lat="42.86697" lon="0.22593">
        <ele>2407</ele>
        <time>2021-11-05T13:31:55Z</time>
      </trkpt>
      <trkpt lat="42.86691" lon="0.22597">
        <ele>2406</ele>
        <time>2021-11-05T13:32:00Z</time>
      </trkpt>
      <trkpt lat="42.86678" lon="0.22588">
        <ele>2405</ele>
        <time>2021-11-05T13:32:12Z</time>
      </trkpt>
      <trkpt lat="42.86669" lon="0.22592">
        <ele>2404</ele>
        <time>2021-11-05T13:32:19Z</time>
      </trkpt>
      <trkpt lat="42.86638" lon="0.22641">
        <ele>2403</ele>
        <time>2021-11-05T13:32:57Z</time>
      </trkpt>
      <trkpt lat="42.86611" lon="0.22655">
        <ele>2402</ele>
        <time>2021-11-05T13:33:20Z</time>
      </trkpt>
      <trkpt lat="42.86596" lon="0.22679">
        <ele>2395</ele>
        <time>2021-11-05T13:33:39Z</time>
      </trkpt>
      <trkpt lat="42.8657" lon="0.22699">
        <ele>2396</ele>
        <time>2021-11-05T13:34:03Z</time>
      </trkpt>
      <trkpt lat="42.86573" lon="0.22706">
        <ele>2393</ele>
        <time>2021-11-05T13:34:08Z</time>
      </trkpt>
      <trkpt lat="42.86562" lon="0.22719">
        <ele>2393</ele>
        <time>2021-11-05T13:34:19Z</time>
      </trkpt>
      <trkpt lat="42.86544" lon="0.22763">
        <ele>2386</ele>
        <time>2021-11-05T13:34:49Z</time>
      </trkpt>
      <trkpt lat="42.86533" lon="0.22785">
        <ele>2383</ele>
        <time>2021-11-05T13:35:04Z</time>
      </trkpt>
      <trkpt lat="42.86521" lon="0.22836">
        <ele>2371</ele>
        <time>2021-11-05T13:35:36Z</time>
      </trkpt>
      <trkpt lat="42.86519" lon="0.22856">
        <ele>2367</ele>
        <time>2021-11-05T13:35:48Z</time>
      </trkpt>
      <trkpt lat="42.86504" lon="0.22891">
        <ele>2358</ele>
        <time>2021-11-05T13:36:12Z</time>
      </trkpt>
      <trkpt lat="42.86484" lon="0.22922">
        <ele>2356</ele>
        <time>2021-11-05T13:36:36Z</time>
      </trkpt>
      <trkpt lat="42.86466" lon="0.23006">
        <ele>2331</ele>
        <time>2021-11-05T13:37:27Z</time>
      </trkpt>
      <trkpt lat="42.8644" lon="0.23054">
        <ele>2316</ele>
        <time>2021-11-05T13:38:02Z</time>
      </trkpt>
      <trkpt lat="42.86416" lon="0.23093">
        <ele>2301</ele>
        <time>2021-11-05T13:38:32Z</time>
      </trkpt>
      <trkpt lat="42.86389" lon="0.23127">
        <ele>2295</ele>
        <time>2021-11-05T13:39:01Z</time>
      </trkpt>
      <trkpt lat="42.86374" lon="0.23165">
        <ele>2283</ele>
        <time>2021-11-05T13:39:27Z</time>
      </trkpt>
      <trkpt lat="42.8636" lon="0.23185">
        <ele>2276</ele>
        <time>2021-11-05T13:39:43Z</time>
      </trkpt>
      <trkpt lat="42.86356" lon="0.23201">
        <ele>2271</ele>
        <time>2021-11-05T13:39:53Z</time>
      </trkpt>
      <trkpt lat="42.86358" lon="0.23227">
        <ele>2263</ele>
        <time>2021-11-05T13:40:08Z</time>
      </trkpt>
      <trkpt lat="42.86364" lon="0.23241">
        <ele>2258</ele>
        <time>2021-11-05T13:40:18Z</time>
      </trkpt>
      <trkpt lat="42.86372" lon="0.23255">
        <ele>2255</ele>
        <time>2021-11-05T13:40:28Z</time>
      </trkpt>
      <trkpt lat="42.86372" lon="0.23275">
        <ele>2252</ele>
        <time>2021-11-05T13:40:40Z</time>
      </trkpt>
      <trkpt lat="42.86382" lon="0.23305">
        <ele>2248</ele>
        <time>2021-11-05T13:40:59Z</time>
      </trkpt>
      <trkpt lat="42.86375" lon="0.23337">
        <ele>2244</ele>
        <time>2021-11-05T13:41:19Z</time>
      </trkpt>
      <trkpt lat="42.86393" lon="0.23411">
        <ele>2234</ele>
        <time>2021-11-05T13:42:05Z</time>
      </trkpt>
      <trkpt lat="42.86395" lon="0.23431">
        <ele>2230</ele>
        <time>2021-11-05T13:42:17Z</time>
      </trkpt>
      <trkpt lat="42.86402" lon="0.23463">
        <ele>2224</ele>
        <time>2021-11-05T13:42:36Z</time>
      </trkpt>
      <trkpt lat="42.86406" lon="0.23476">
        <ele>2221</ele>
        <time>2021-11-05T13:42:44Z</time>
      </trkpt>
      <trkpt lat="42.86406" lon="0.23496">
        <ele>2217</ele>
        <time>2021-11-05T13:42:56Z</time>
      </trkpt>
      <trkpt lat="42.86401" lon="0.2352">
        <ele>2212</ele>
        <time>2021-11-05T13:43:11Z</time>
      </trkpt>
      <trkpt lat="42.86395" lon="0.23532">
        <ele>2210</ele>
        <time>2021-11-05T13:43:19Z</time>
      </trkpt>
      <trkpt lat="42.86393" lon="0.23552">
        <ele>2206</ele>
        <time>2021-11-05T13:43:31Z</time>
      </trkpt>
      <trkpt lat="42.86391" lon="0.23577">
        <ele>2200</ele>
        <time>2021-11-05T13:43:46Z</time>
      </trkpt>
      <trkpt lat="42.86395" lon="0.23615">
        <ele>2186</ele>
        <time>2021-11-05T13:44:08Z</time>
      </trkpt>
      <trkpt lat="42.86387" lon="0.2362">
        <ele>2184</ele>
        <time>2021-11-05T13:44:15Z</time>
      </trkpt>
      <trkpt lat="42.86366" lon="0.23618">
        <ele>2185</ele>
        <time>2021-11-05T13:44:32Z</time>
      </trkpt>
      <trkpt lat="42.86362" lon="0.23623">
        <ele>2183</ele>
        <time>2021-11-05T13:44:37Z</time>
      </trkpt>
      <trkpt lat="42.86362" lon="0.2363">
        <ele>2180</ele>
        <time>2021-11-05T13:44:41Z</time>
      </trkpt>
      <trkpt lat="42.86352" lon="0.23638">
        <ele>2177</ele>
        <time>2021-11-05T13:44:50Z</time>
      </trkpt>
      <trkpt lat="42.86356" lon="0.23644">
        <ele>2175</ele>
        <time>2021-11-05T13:44:55Z</time>
      </trkpt>
      <trkpt lat="42.86348" lon="0.23647">
        <ele>2174</ele>
        <time>2021-11-05T13:45:01Z</time>
      </trkpt>
      <trkpt lat="42.86352" lon="0.23655">
        <ele>2170</ele>
        <time>2021-11-05T13:45:07Z</time>
      </trkpt>
      <trkpt lat="42.86347" lon="0.23664">
        <ele>2167</ele>
        <time>2021-11-05T13:45:14Z</time>
      </trkpt>
      <trkpt lat="42.86338" lon="0.23686">
        <ele>2160</ele>
        <time>2021-11-05T13:45:29Z</time>
      </trkpt>
      <trkpt lat="42.86321" lon="0.23723">
        <ele>2149</ele>
        <time>2021-11-05T13:45:54Z</time>
      </trkpt>
      <trkpt lat="42.8628" lon="0.23756">
        <ele>2140</ele>
        <time>2021-11-05T13:46:32Z</time>
      </trkpt>
      <trkpt lat="42.86246" lon="0.23803">
        <ele>2133</ele>
        <time>2021-11-05T13:47:11Z</time>
      </trkpt>
      <trkpt lat="42.86221" lon="0.23826">
        <ele>2127</ele>
        <time>2021-11-05T13:47:35Z</time>
      </trkpt>
      <trkpt lat="42.8621" lon="0.2384">
        <ele>2124</ele>
        <time>2021-11-05T13:47:47Z</time>
      </trkpt>
      <trkpt lat="42.86206" lon="0.23868">
        <ele>2121</ele>
        <time>2021-11-05T13:48:04Z</time>
      </trkpt>
      <trkpt lat="42.86197" lon="0.23889">
        <ele>2118</ele>
        <time>2021-11-05T13:48:18Z</time>
      </trkpt>
      <trkpt lat="42.86195" lon="0.23904">
        <ele>2117</ele>
        <time>2021-11-05T13:48:27Z</time>
      </trkpt>
      <trkpt lat="42.86202" lon="0.2391">
        <ele>2117</ele>
        <time>2021-11-05T13:48:34Z</time>
      </trkpt>
      <trkpt lat="42.86205" lon="0.23927">
        <ele>2117</ele>
        <time>2021-11-05T13:48:44Z</time>
      </trkpt>
      <trkpt lat="42.86196" lon="0.2395">
        <ele>2116</ele>
        <time>2021-11-05T13:48:59Z</time>
      </trkpt>
      <trkpt lat="42.86168" lon="0.23987">
        <ele>2113</ele>
        <time>2021-11-05T13:49:31Z</time>
      </trkpt>
      <trkpt lat="42.86143" lon="0.2399">
        <ele>2108</ele>
        <time>2021-11-05T13:49:51Z</time>
      </trkpt>
      <trkpt lat="42.86131" lon="0.23988">
        <ele>2106</ele>
        <time>2021-11-05T13:50:00Z</time>
      </trkpt>
      <trkpt lat="42.86125" lon="0.24002">
        <ele>2104</ele>
        <time>2021-11-05T13:50:10Z</time>
      </trkpt>
      <trkpt lat="42.86087" lon="0.24036">
        <ele>2091</ele>
        <time>2021-11-05T13:50:46Z</time>
      </trkpt>
      <trkpt lat="42.86064" lon="0.24042">
        <ele>2088</ele>
        <time>2021-11-05T13:51:05Z</time>
      </trkpt>
      <trkpt lat="42.86034" lon="0.24047">
        <ele>2085</ele>
        <time>2021-11-05T13:51:29Z</time>
      </trkpt>
      <trkpt lat="42.86017" lon="0.24059">
        <ele>2080</ele>
        <time>2021-11-05T13:51:45Z</time>
      </trkpt>
      <trkpt lat="42.85984" lon="0.24091">
        <ele>2068</ele>
        <time>2021-11-05T13:52:17Z</time>
      </trkpt>
      <trkpt lat="42.8597" lon="0.24111">
        <ele>2061</ele>
        <time>2021-11-05T13:52:33Z</time>
      </trkpt>
      <trkpt lat="42.85941" lon="0.24135">
        <ele>2049</ele>
        <time>2021-11-05T13:53:00Z</time>
      </trkpt>
      <trkpt lat="42.85927" lon="0.2416">
        <ele>2038</ele>
        <time>2021-11-05T13:53:19Z</time>
      </trkpt>
      <trkpt lat="42.85928" lon="0.24181">
        <ele>2030</ele>
        <time>2021-11-05T13:53:31Z</time>
      </trkpt>
      <trkpt lat="42.85916" lon="0.24189">
        <ele>2025</ele>
        <time>2021-11-05T13:53:42Z</time>
      </trkpt>
      <trkpt lat="42.8589" lon="0.242">
        <ele>2017</ele>
        <time>2021-11-05T13:54:04Z</time>
      </trkpt>
      <trkpt lat="42.85864" lon="0.24195">
        <ele>2016</ele>
        <time>2021-11-05T13:54:25Z</time>
      </trkpt>
      <trkpt lat="42.85828" lon="0.24198">
        <ele>2011</ele>
        <time>2021-11-05T13:54:54Z</time>
      </trkpt>
      <trkpt lat="42.85809" lon="0.24204">
        <ele>2007</ele>
        <time>2021-11-05T13:55:09Z</time>
      </trkpt>
      <trkpt lat="42.858" lon="0.24239">
        <ele>1993</ele>
        <time>2021-11-05T13:55:31Z</time>
      </trkpt>
      <trkpt lat="42.85801" lon="0.24269">
        <ele>1982</ele>
        <time>2021-11-05T13:55:49Z</time>
      </trkpt>
      <trkpt lat="42.85797" lon="0.24308">
        <ele>1966</ele>
        <time>2021-11-05T13:56:12Z</time>
      </trkpt>
      <trkpt lat="42.85788" lon="0.24359">
        <ele>1949</ele>
        <time>2021-11-05T13:56:42Z</time>
      </trkpt>
      <trkpt lat="42.85761" lon="0.24393">
        <ele>1933</ele>
        <time>2021-11-05T13:57:12Z</time>
      </trkpt>
      <trkpt lat="42.85734" lon="0.24419">
        <ele>1924</ele>
        <time>2021-11-05T13:57:38Z</time>
      </trkpt>
      <trkpt lat="42.8571" lon="0.24447">
        <ele>1920</ele>
        <time>2021-11-05T13:58:04Z</time>
      </trkpt>
      <trkpt lat="42.85702" lon="0.24469">
        <ele>1915</ele>
        <time>2021-11-05T13:58:18Z</time>
      </trkpt>
      <trkpt lat="42.85687" lon="0.24486">
        <ele>1909</ele>
        <time>2021-11-05T13:58:34Z</time>
      </trkpt>
      <trkpt lat="42.85668" lon="0.24551">
        <ele>1890</ele>
        <time>2021-11-05T13:59:15Z</time>
      </trkpt>
      <trkpt lat="42.85651" lon="0.24587">
        <ele>1881</ele>
        <time>2021-11-05T13:59:40Z</time>
      </trkpt>
      <trkpt lat="42.85654" lon="0.24609">
        <ele>1877</ele>
        <time>2021-11-05T13:59:53Z</time>
      </trkpt>
      <trkpt lat="42.85638" lon="0.2466">
        <ele>1868</ele>
        <time>2021-11-05T14:00:26Z</time>
      </trkpt>
      <trkpt lat="42.85631" lon="0.2468">
        <ele>1865</ele>
        <time>2021-11-05T14:00:39Z</time>
      </trkpt>
      <trkpt lat="42.85624" lon="0.24707">
        <ele>1863</ele>
        <time>2021-11-05T14:00:55Z</time>
      </trkpt>
      <trkpt lat="42.85612" lon="0.24725">
        <ele>1862</ele>
        <time>2021-11-05T14:01:10Z</time>
      </trkpt>
      <trkpt lat="42.8563" lon="0.24764">
        <ele>1859</ele>
        <time>2021-11-05T14:01:37Z</time>
      </trkpt>
      <trkpt lat="42.8564" lon="0.2479">
        <ele>1857</ele>
        <time>2021-11-05T14:01:54Z</time>
      </trkpt>
      <trkpt lat="42.85656" lon="0.24871">
        <ele>1856</ele>
        <time>2021-11-05T14:02:43Z</time>
      </trkpt>
      <trkpt lat="42.85655" lon="0.2489">
        <ele>1856</ele>
        <time>2021-11-05T14:02:54Z</time>
      </trkpt>
      <trkpt lat="42.85651" lon="0.24913">
        <ele>1856</ele>
        <time>2021-11-05T14:03:08Z</time>
      </trkpt>
      <trkpt lat="42.85637" lon="0.24938">
        <ele>1854</ele>
        <time>2021-11-05T14:03:27Z</time>
      </trkpt>
      <trkpt lat="42.85641" lon="0.24963">
        <ele>1854</ele>
        <time>2021-11-05T14:03:42Z</time>
      </trkpt>
      <trkpt lat="42.85643" lon="0.24998">
        <ele>1854</ele>
        <time>2021-11-05T14:04:02Z</time>
      </trkpt>
      <trkpt lat="42.85656" lon="0.25033">
        <ele>1854</ele>
        <time>2021-11-05T14:04:25Z</time>
      </trkpt>
      <trkpt lat="42.85652" lon="0.25047">
        <ele>1852</ele>
        <time>2021-11-05T14:04:34Z</time>
      </trkpt>
      <trkpt lat="42.85654" lon="0.25065">
        <ele>1852</ele>
        <time>2021-11-05T14:04:45Z</time>
      </trkpt>
      <trkpt lat="42.85652" lon="0.25082">
        <ele>1850</ele>
        <time>2021-11-05T14:04:55Z</time>
      </trkpt>
      <trkpt lat="42.85652" lon="0.25101">
        <ele>1846</ele>
        <time>2021-11-05T14:05:06Z</time>
      </trkpt>
      <trkpt lat="42.85654" lon="0.25113">
        <ele>1844</ele>
        <time>2021-11-05T14:05:13Z</time>
      </trkpt>
      <trkpt lat="42.85656" lon="0.25135">
        <ele>1839</ele>
        <time>2021-11-05T14:05:26Z</time>
      </trkpt>
      <trkpt lat="42.85664" lon="0.25157">
        <ele>1834</ele>
        <time>2021-11-05T14:05:41Z</time>
      </trkpt>
      <trkpt lat="42.85665" lon="0.2517">
        <ele>1830</ele>
        <time>2021-11-05T14:05:48Z</time>
      </trkpt>
      <trkpt lat="42.85669" lon="0.25181">
        <ele>1828</ele>
        <time>2021-11-05T14:05:56Z</time>
      </trkpt>
      <trkpt lat="42.85671" lon="0.25198">
        <ele>1823</ele>
        <time>2021-11-05T14:06:06Z</time>
      </trkpt>
      <trkpt lat="42.85677" lon="0.25204">
        <ele>1823</ele>
        <time>2021-11-05T14:06:12Z</time>
      </trkpt>
      <trkpt lat="42.85687" lon="0.25227">
        <ele>1818</ele>
        <time>2021-11-05T14:06:27Z</time>
      </trkpt>
      <trkpt lat="42.85692" lon="0.25231">
        <ele>1817</ele>
        <time>2021-11-05T14:06:32Z</time>
      </trkpt>
      <trkpt lat="42.85693" lon="0.2524">
        <ele>1814</ele>
        <time>2021-11-05T14:06:37Z</time>
      </trkpt>
      <trkpt lat="42.85698" lon="0.25247">
        <ele>1813</ele>
        <time>2021-11-05T14:06:43Z</time>
      </trkpt>
      <trkpt lat="42.85709" lon="0.25251">
        <ele>1813</ele>
        <time>2021-11-05T14:06:52Z</time>
      </trkpt>
      <trkpt lat="42.85746" lon="0.25311">
        <ele>1794</ele>
        <time>2021-11-05T14:07:38Z</time>
      </trkpt>
      <trkpt lat="42.85764" lon="0.25352">
        <ele>1785</ele>
        <time>2021-11-05T14:08:06Z</time>
      </trkpt>
      <trkpt lat="42.85773" lon="0.25381">
        <ele>1780</ele>
        <time>2021-11-05T14:08:25Z</time>
      </trkpt>
      <trkpt lat="42.85778" lon="0.25406">
        <ele>1773</ele>
        <time>2021-11-05T14:08:40Z</time>
      </trkpt>
      <trkpt lat="42.85796" lon="0.25446">
        <ele>1766</ele>
        <time>2021-11-05T14:09:08Z</time>
      </trkpt>
      <trkpt lat="42.858" lon="0.2547">
        <ele>1760</ele>
        <time>2021-11-05T14:09:22Z</time>
      </trkpt>
      <trkpt lat="42.85809" lon="0.25485">
        <ele>1753</ele>
        <time>2021-11-05T14:09:33Z</time>
      </trkpt>
      <trkpt lat="42.85818" lon="0.25495">
        <ele>1747</ele>
        <time>2021-11-05T14:09:43Z</time>
      </trkpt>
      <trkpt lat="42.85829" lon="0.25502">
        <ele>1741</ele>
        <time>2021-11-05T14:09:52Z</time>
      </trkpt>
      <trkpt lat="42.85835" lon="0.2552">
        <ele>1736</ele>
        <time>2021-11-05T14:10:04Z</time>
      </trkpt>
      <trkpt lat="42.85866" lon="0.25543">
        <ele>1733</ele>
        <time>2021-11-05T14:10:32Z</time>
      </trkpt>
      <trkpt lat="42.85872" lon="0.25561">
        <ele>1727</ele>
        <time>2021-11-05T14:10:44Z</time>
      </trkpt>
      <trkpt lat="42.85878" lon="0.2557">
        <ele>1724</ele>
        <time>2021-11-05T14:10:51Z</time>
      </trkpt>
      <trkpt lat="42.85889" lon="0.25575">
        <ele>1722</ele>
        <time>2021-11-05T14:11:00Z</time>
      </trkpt>
      <trkpt lat="42.85897" lon="0.25589">
        <ele>1716</ele>
        <time>2021-11-05T14:11:11Z</time>
      </trkpt>
      <trkpt lat="42.85898" lon="0.25601">
        <ele>1713</ele>
        <time>2021-11-05T14:11:18Z</time>
      </trkpt>
      <trkpt lat="42.85901" lon="0.25611">
        <ele>1710</ele>
        <time>2021-11-05T14:11:24Z</time>
      </trkpt>
      <trkpt lat="42.85905" lon="0.25614">
        <ele>1709</ele>
        <time>2021-11-05T14:11:28Z</time>
      </trkpt>
      <trkpt lat="42.85908" lon="0.25624">
        <ele>1705</ele>
        <time>2021-11-05T14:11:34Z</time>
      </trkpt>
      <trkpt lat="42.85908" lon="0.25637">
        <ele>1702</ele>
        <time>2021-11-05T14:11:42Z</time>
      </trkpt>
      <trkpt lat="42.85917" lon="0.25686">
        <ele>1685</ele>
        <time>2021-11-05T14:12:11Z</time>
      </trkpt>
      <trkpt lat="42.85924" lon="0.25696">
        <ele>1685</ele>
        <time>2021-11-05T14:12:20Z</time>
      </trkpt>
      <trkpt lat="42.85929" lon="0.25707">
        <ele>1684</ele>
        <time>2021-11-05T14:12:27Z</time>
      </trkpt>
      <trkpt lat="42.85932" lon="0.25738">
        <ele>1677</ele>
        <time>2021-11-05T14:12:45Z</time>
      </trkpt>
      <trkpt lat="42.8594" lon="0.25773">
        <ele>1669</ele>
        <time>2021-11-05T14:13:07Z</time>
      </trkpt>
      <trkpt lat="42.85941" lon="0.25785">
        <ele>1666</ele>
        <time>2021-11-05T14:13:14Z</time>
      </trkpt>
      <trkpt lat="42.85951" lon="0.25805">
        <ele>1664</ele>
        <time>2021-11-05T14:13:28Z</time>
      </trkpt>
      <trkpt lat="42.85952" lon="0.25826">
        <ele>1659</ele>
        <time>2021-11-05T14:13:41Z</time>
      </trkpt>
      <trkpt lat="42.8596" lon="0.25852">
        <ele>1657</ele>
        <time>2021-11-05T14:13:57Z</time>
      </trkpt>
      <trkpt lat="42.85956" lon="0.25878">
        <ele>1651</ele>
        <time>2021-11-05T14:14:13Z</time>
      </trkpt>
      <trkpt lat="42.8595" lon="0.25892">
        <ele>1646</ele>
        <time>2021-11-05T14:14:22Z</time>
      </trkpt>
      <trkpt lat="42.85947" lon="0.25907">
        <ele>1642</ele>
        <time>2021-11-05T14:14:31Z</time>
      </trkpt>
      <trkpt lat="42.85939" lon="0.25917">
        <ele>1637</ele>
        <time>2021-11-05T14:14:40Z</time>
      </trkpt>
      <trkpt lat="42.85934" lon="0.25947">
        <ele>1633</ele>
        <time>2021-11-05T14:14:58Z</time>
      </trkpt>
      <trkpt lat="42.8592" lon="0.25966">
        <ele>1625</ele>
        <time>2021-11-05T14:15:14Z</time>
      </trkpt>
      <trkpt lat="42.85878" lon="0.26067">
        <ele>1612</ele>
        <time>2021-11-05T14:16:22Z</time>
      </trkpt>
      <trkpt lat="42.85856" lon="0.26092">
        <ele>1604</ele>
        <time>2021-11-05T14:16:45Z</time>
      </trkpt>
      <trkpt lat="42.85835" lon="0.26144">
        <ele>1600</ele>
        <time>2021-11-05T14:17:20Z</time>
      </trkpt>
      <trkpt lat="42.85826" lon="0.26176">
        <ele>1599</ele>
        <time>2021-11-05T14:17:40Z</time>
      </trkpt>
      <trkpt lat="42.85814" lon="0.26196">
        <ele>1595</ele>
        <time>2021-11-05T14:17:55Z</time>
      </trkpt>
      <trkpt lat="42.85811" lon="0.26216">
        <ele>1595</ele>
        <time>2021-11-05T14:18:07Z</time>
      </trkpt>
      <trkpt lat="42.85812" lon="0.26293">
        <ele>1600</ele>
        <time>2021-11-05T14:18:52Z</time>
      </trkpt>
      <trkpt lat="42.85795" lon="0.26331">
        <ele>1593</ele>
        <time>2021-11-05T14:19:19Z</time>
      </trkpt>
      <trkpt lat="42.8579" lon="0.26354">
        <ele>1590</ele>
        <time>2021-11-05T14:19:33Z</time>
      </trkpt>
      <trkpt lat="42.85781" lon="0.26376">
        <ele>1585</ele>
        <time>2021-11-05T14:19:47Z</time>
      </trkpt>
      <trkpt lat="42.85772" lon="0.26415">
        <ele>1579</ele>
        <time>2021-11-05T14:20:11Z</time>
      </trkpt>
      <trkpt lat="42.8577" lon="0.26442">
        <ele>1577</ele>
        <time>2021-11-05T14:20:27Z</time>
      </trkpt>
      <trkpt lat="42.85766" lon="0.26463">
        <ele>1574</ele>
        <time>2021-11-05T14:20:40Z</time>
      </trkpt>
      <trkpt lat="42.85759" lon="0.26517">
        <ele>1569</ele>
        <time>2021-11-05T14:21:12Z</time>
      </trkpt>
      <trkpt lat="42.85754" lon="0.26546">
        <ele>1568</ele>
        <time>2021-11-05T14:21:30Z</time>
      </trkpt>
      <trkpt lat="42.85755" lon="0.26554">
        <ele>1568</ele>
        <time>2021-11-05T14:21:34Z</time>
      </trkpt>
      <trkpt lat="42.8575" lon="0.26564">
        <ele>1566</ele>
        <time>2021-11-05T14:21:42Z</time>
      </trkpt>
      <trkpt lat="42.8575" lon="0.26575">
        <ele>1567</ele>
        <time>2021-11-05T14:21:48Z</time>
      </trkpt>
      <trkpt lat="42.85745" lon="0.26591">
        <ele>1564</ele>
        <time>2021-11-05T14:21:58Z</time>
      </trkpt>
      <trkpt lat="42.85744" lon="0.26619">
        <ele>1562</ele>
        <time>2021-11-05T14:22:15Z</time>
      </trkpt>
      <trkpt lat="42.85739" lon="0.2664">
        <ele>1559</ele>
        <time>2021-11-05T14:22:28Z</time>
      </trkpt>
      <trkpt lat="42.85729" lon="0.26663">
        <ele>1554</ele>
        <time>2021-11-05T14:22:43Z</time>
      </trkpt>
      <trkpt lat="42.85727" lon="0.26672">
        <ele>1552</ele>
        <time>2021-11-05T14:22:49Z</time>
      </trkpt>
      <trkpt lat="42.85732" lon="0.26688">
        <ele>1554</ele>
        <time>2021-11-05T14:22:59Z</time>
      </trkpt>
      <trkpt lat="42.85732" lon="0.26695">
        <ele>1554</ele>
        <time>2021-11-05T14:23:03Z</time>
      </trkpt>
      <trkpt lat="42.85719" lon="0.26701">
        <ele>1548</ele>
        <time>2021-11-05T14:23:14Z</time>
      </trkpt>
      <trkpt lat="42.85712" lon="0.26708">
        <ele>1545</ele>
        <time>2021-11-05T14:23:21Z</time>
      </trkpt>
      <trkpt lat="42.85708" lon="0.26717">
        <ele>1543</ele>
        <time>2021-11-05T14:23:27Z</time>
      </trkpt>
      <trkpt lat="42.85699" lon="0.26723">
        <ele>1539</ele>
        <time>2021-11-05T14:23:35Z</time>
      </trkpt>
      <trkpt lat="42.85693" lon="0.26731">
        <ele>1536</ele>
        <time>2021-11-05T14:23:42Z</time>
      </trkpt>
      <trkpt lat="42.85686" lon="0.26758">
        <ele>1532</ele>
        <time>2021-11-05T14:23:59Z</time>
      </trkpt>
      <trkpt lat="42.85679" lon="0.26779">
        <ele>1529</ele>
        <time>2021-11-05T14:24:12Z</time>
      </trkpt>
      <trkpt lat="42.85665" lon="0.26799">
        <ele>1523</ele>
        <time>2021-11-05T14:24:29Z</time>
      </trkpt>
      <trkpt lat="42.85658" lon="0.26816">
        <ele>1521</ele>
        <time>2021-11-05T14:24:40Z</time>
      </trkpt>
      <trkpt lat="42.85629" lon="0.26841">
        <ele>1511</ele>
        <time>2021-11-05T14:25:08Z</time>
      </trkpt>
      <trkpt lat="42.85613" lon="0.26859">
        <ele>1505</ele>
        <time>2021-11-05T14:25:24Z</time>
      </trkpt>
      <trkpt lat="42.856" lon="0.26878">
        <ele>1500</ele>
        <time>2021-11-05T14:25:39Z</time>
      </trkpt>
      <trkpt lat="42.85591" lon="0.26912">
        <ele>1495</ele>
        <time>2021-11-05T14:26:01Z</time>
      </trkpt>
      <trkpt lat="42.85583" lon="0.26927">
        <ele>1492</ele>
        <time>2021-11-05T14:26:12Z</time>
      </trkpt>
      <trkpt lat="42.85557" lon="0.26955">
        <ele>1485</ele>
        <time>2021-11-05T14:26:38Z</time>
      </trkpt>
      <trkpt lat="42.85546" lon="0.26974">
        <ele>1481</ele>
        <time>2021-11-05T14:26:52Z</time>
      </trkpt>
      <trkpt lat="42.85537" lon="0.26984">
        <ele>1477</ele>
        <time>2021-11-05T14:27:02Z</time>
      </trkpt>
      <trkpt lat="42.85514" lon="0.27043">
        <ele>1471</ele>
        <time>2021-11-05T14:27:41Z</time>
      </trkpt>
      <trkpt lat="42.8549" lon="0.27078">
        <ele>1463</ele>
        <time>2021-11-05T14:28:09Z</time>
      </trkpt>
      <trkpt lat="42.85475" lon="0.27094">
        <ele>1459</ele>
        <time>2021-11-05T14:28:24Z</time>
      </trkpt>
      <trkpt lat="42.85447" lon="0.27131">
        <ele>1454</ele>
        <time>2021-11-05T14:28:55Z</time>
      </trkpt>
      <trkpt lat="42.85436" lon="0.27148">
        <ele>1451</ele>
        <time>2021-11-05T14:29:09Z</time>
      </trkpt>
      <trkpt lat="42.85418" lon="0.27193">
        <ele>1450</ele>
        <time>2021-11-05T14:29:39Z</time>
      </trkpt>
      <trkpt lat="42.85383" lon="0.27241">
        <ele>1445</ele>
        <time>2021-11-05T14:30:18Z</time>
      </trkpt>
      <trkpt lat="42.8535" lon="0.27276">
        <ele>1438</ele>
        <time>2021-11-05T14:30:52Z</time>
      </trkpt>
      <trkpt lat="42.85333" lon="0.27306">
        <ele>1440</ele>
        <time>2021-11-05T14:31:14Z</time>
      </trkpt>
      <trkpt lat="42.85283" lon="0.27371">
        <ele>1435</ele>
        <time>2021-11-05T14:32:10Z</time>
      </trkpt>
      <trkpt lat="42.85264" lon="0.27402">
        <ele>1432</ele>
        <time>2021-11-05T14:32:33Z</time>
      </trkpt>
      <trkpt lat="42.8526" lon="0.27411">
        <ele>1431</ele>
        <time>2021-11-05T14:32:39Z</time>
      </trkpt>
      <trkpt lat="42.85226" lon="0.27462">
        <ele>1429</ele>
        <time>2021-11-05T14:33:20Z</time>
      </trkpt>
      <trkpt lat="42.85189" lon="0.27527">
        <ele>1426</ele>
        <time>2021-11-05T14:34:08Z</time>
      </trkpt>
      <trkpt lat="42.8518" lon="0.27545">
        <ele>1424</ele>
        <time>2021-11-05T14:34:21Z</time>
      </trkpt>
      <trkpt lat="42.85157" lon="0.27587">
        <ele>1418</ele>
        <time>2021-11-05T14:34:52Z</time>
      </trkpt>
      <trkpt lat="42.85152" lon="0.27599">
        <ele>1415</ele>
        <time>2021-11-05T14:35:00Z</time>
      </trkpt>
      <trkpt lat="42.85142" lon="0.27615">
        <ele>1410</ele>
        <time>2021-11-05T14:35:12Z</time>
      </trkpt>
    </trkseg>
  </trk>
</gpx>